<?xml version="1.0" encoding="UTF-8" standalone="no" ?>
<gpx xmlns="http://www.topografix.com/GPX/1/1" xmlns:xsi="http://www.w3.org/2001/XMLSchema-instance" xsi:schemaLocation="http://www.topografix.com/GPX/1/1 http://www.topografix.com/GPX/1/1/gpx.xsd" version="1.1" creator="VisuGPX - https://www.visugpx.com">
  <metadata>
    <name>Rochefort en Terre et les ardoissières de Pluherlin</name>
    <desc><![CDATA[Randonnée de 16km en boucle à partir de Rochefort-en-Terre]]></desc>
  </metadata>
  <trk>
    <name><![CDATA[Rochefort en Terre et les ardoissières de Pluherlin_R]]></name>
    <trkseg>
      <trkpt lat="47.69916" lon="-2.33525">
        <ele>114.05</ele>
        <time>2014-08-04T08:46:16Z</time>
      </trkpt>
      <trkpt lat="47.69916" lon="-2.33525">
        <ele>114.05</ele>
        <time>2014-08-04T08:46:17Z</time>
      </trkpt>
      <trkpt lat="47.69916" lon="-2.33525">
        <ele>53.01</ele>
        <time>2014-08-04T08:46:21Z</time>
      </trkpt>
      <trkpt lat="47.69916" lon="-2.33525">
        <ele>53.01</ele>
        <time>2014-08-04T08:46:22Z</time>
      </trkpt>
      <trkpt lat="47.69918" lon="-2.33538">
        <ele>53.49</ele>
        <time>2014-08-04T08:46:44Z</time>
      </trkpt>
      <trkpt lat="47.69919" lon="-2.33546">
        <ele>53.49</ele>
        <time>2014-08-04T08:46:59Z</time>
      </trkpt>
      <trkpt lat="47.6992" lon="-2.33547">
        <ele>53.49</ele>
        <time>2014-08-04T08:47:00Z</time>
      </trkpt>
      <trkpt lat="47.69922" lon="-2.33553">
        <ele>53.49</ele>
        <time>2014-08-04T08:47:06Z</time>
      </trkpt>
      <trkpt lat="47.69927" lon="-2.33569">
        <ele>53.97</ele>
        <time>2014-08-04T08:47:18Z</time>
      </trkpt>
      <trkpt lat="47.69928" lon="-2.33573">
        <ele>54.45</ele>
        <time>2014-08-04T08:47:21Z</time>
      </trkpt>
      <trkpt lat="47.6993" lon="-2.33592">
        <ele>53.97</ele>
        <time>2014-08-04T08:47:32Z</time>
      </trkpt>
      <trkpt lat="47.6993" lon="-2.33608">
        <ele>54.45</ele>
        <time>2014-08-04T08:47:42Z</time>
      </trkpt>
      <trkpt lat="47.6993" lon="-2.33614">
        <ele>54.45</ele>
        <time>2014-08-04T08:47:46Z</time>
      </trkpt>
      <trkpt lat="47.69931" lon="-2.33621">
        <ele>54.93</ele>
        <time>2014-08-04T08:47:58Z</time>
      </trkpt>
      <trkpt lat="47.69934" lon="-2.33627">
        <ele>54.93</ele>
        <time>2014-08-04T08:48:13Z</time>
      </trkpt>
      <trkpt lat="47.69928" lon="-2.33642">
        <ele>54.45</ele>
        <time>2014-08-04T08:48:28Z</time>
      </trkpt>
      <trkpt lat="47.69925" lon="-2.33654">
        <ele>53.01</ele>
        <time>2014-08-04T08:48:42Z</time>
      </trkpt>
      <trkpt lat="47.69923" lon="-2.33668">
        <ele>53.49</ele>
        <time>2014-08-04T08:49:01Z</time>
      </trkpt>
      <trkpt lat="47.69922" lon="-2.33685">
        <ele>53.49</ele>
        <time>2014-08-04T08:49:13Z</time>
      </trkpt>
      <trkpt lat="47.69929" lon="-2.33695">
        <ele>53.97</ele>
        <time>2014-08-04T08:49:31Z</time>
      </trkpt>
      <trkpt lat="47.69928" lon="-2.3369">
        <ele>53.97</ele>
        <time>2014-08-04T08:49:41Z</time>
      </trkpt>
      <trkpt lat="47.69912" lon="-2.33694">
        <ele>53.49</ele>
        <time>2014-08-04T09:02:59Z</time>
      </trkpt>
      <trkpt lat="47.69914" lon="-2.33702">
        <ele>53.97</ele>
        <time>2014-08-04T09:03:14Z</time>
      </trkpt>
      <trkpt lat="47.69921" lon="-2.33703">
        <ele>53.01</ele>
        <time>2014-08-04T09:03:47Z</time>
      </trkpt>
      <trkpt lat="47.69927" lon="-2.33702">
        <ele>53.97</ele>
        <time>2014-08-04T09:04:13Z</time>
      </trkpt>
      <trkpt lat="47.69931" lon="-2.33708">
        <ele>53.97</ele>
        <time>2014-08-04T09:04:32Z</time>
      </trkpt>
      <trkpt lat="47.69933" lon="-2.33707">
        <ele>53.97</ele>
        <time>2014-08-04T09:04:54Z</time>
      </trkpt>
      <trkpt lat="47.69933" lon="-2.33708">
        <ele>53.97</ele>
        <time>2014-08-04T09:04:55Z</time>
      </trkpt>
      <trkpt lat="47.69942" lon="-2.33722">
        <ele>54.93</ele>
        <time>2014-08-04T09:05:12Z</time>
      </trkpt>
      <trkpt lat="47.6994" lon="-2.33722">
        <ele>54.93</ele>
        <time>2014-08-04T09:05:36Z</time>
      </trkpt>
      <trkpt lat="47.69936" lon="-2.33738">
        <ele>54.45</ele>
        <time>2014-08-04T09:05:51Z</time>
      </trkpt>
      <trkpt lat="47.69932" lon="-2.33751">
        <ele>54.45</ele>
        <time>2014-08-04T09:06:06Z</time>
      </trkpt>
      <trkpt lat="47.69931" lon="-2.33752">
        <ele>53.97</ele>
        <time>2014-08-04T09:06:07Z</time>
      </trkpt>
      <trkpt lat="47.69917" lon="-2.33747">
        <ele>53.01</ele>
        <time>2014-08-04T09:06:22Z</time>
      </trkpt>
      <trkpt lat="47.69904" lon="-2.33736">
        <ele>50.61</ele>
        <time>2014-08-04T09:06:41Z</time>
      </trkpt>
      <trkpt lat="47.6989" lon="-2.33724">
        <ele>47.24</ele>
        <time>2014-08-04T09:06:59Z</time>
      </trkpt>
      <trkpt lat="47.69874" lon="-2.33723">
        <ele>44.36</ele>
        <time>2014-08-04T09:07:16Z</time>
      </trkpt>
      <trkpt lat="47.69871" lon="-2.33716">
        <ele>40.99</ele>
        <time>2014-08-04T09:07:28Z</time>
      </trkpt>
      <trkpt lat="47.69868" lon="-2.33713">
        <ele>40.03</ele>
        <time>2014-08-04T09:07:33Z</time>
      </trkpt>
      <trkpt lat="47.69845" lon="-2.33705">
        <ele>36.67</ele>
        <time>2014-08-04T09:07:48Z</time>
      </trkpt>
      <trkpt lat="47.69826" lon="-2.33695">
        <ele>34.26</ele>
        <time>2014-08-04T09:08:04Z</time>
      </trkpt>
      <trkpt lat="47.69819" lon="-2.33688">
        <ele>33.3</ele>
        <time>2014-08-04T09:08:20Z</time>
      </trkpt>
      <trkpt lat="47.69809" lon="-2.33681">
        <ele>32.82</ele>
        <time>2014-08-04T09:08:33Z</time>
      </trkpt>
      <trkpt lat="47.69795" lon="-2.33675">
        <ele>32.34</ele>
        <time>2014-08-04T09:08:44Z</time>
      </trkpt>
      <trkpt lat="47.69791" lon="-2.33666">
        <ele>32.34</ele>
        <time>2014-08-04T09:08:58Z</time>
      </trkpt>
      <trkpt lat="47.69793" lon="-2.33666">
        <ele>32.34</ele>
        <time>2014-08-04T09:09:03Z</time>
      </trkpt>
      <trkpt lat="47.69796" lon="-2.33657">
        <ele>31.86</ele>
        <time>2014-08-04T09:09:11Z</time>
      </trkpt>
      <trkpt lat="47.69802" lon="-2.33652">
        <ele>31.86</ele>
        <time>2014-08-04T09:09:27Z</time>
      </trkpt>
      <trkpt lat="47.69801" lon="-2.33661">
        <ele>32.34</ele>
        <time>2014-08-04T09:09:39Z</time>
      </trkpt>
      <trkpt lat="47.69802" lon="-2.33655">
        <ele>31.86</ele>
        <time>2014-08-04T09:09:53Z</time>
      </trkpt>
      <trkpt lat="47.69799" lon="-2.33647">
        <ele>31.86</ele>
        <time>2014-08-04T09:10:01Z</time>
      </trkpt>
      <trkpt lat="47.69796" lon="-2.3365">
        <ele>31.86</ele>
        <time>2014-08-04T09:10:03Z</time>
      </trkpt>
      <trkpt lat="47.69783" lon="-2.33655">
        <ele>31.86</ele>
        <time>2014-08-04T09:10:16Z</time>
      </trkpt>
      <trkpt lat="47.6978" lon="-2.33658">
        <ele>32.34</ele>
        <time>2014-08-04T09:10:20Z</time>
      </trkpt>
      <trkpt lat="47.69773" lon="-2.33664">
        <ele>32.34</ele>
        <time>2014-08-04T09:10:28Z</time>
      </trkpt>
      <trkpt lat="47.69753" lon="-2.33655">
        <ele>32.34</ele>
        <time>2014-08-04T09:10:45Z</time>
      </trkpt>
      <trkpt lat="47.69751" lon="-2.33655">
        <ele>32.34</ele>
        <time>2014-08-04T09:10:47Z</time>
      </trkpt>
      <trkpt lat="47.69729" lon="-2.33648">
        <ele>32.34</ele>
        <time>2014-08-04T09:11:05Z</time>
      </trkpt>
      <trkpt lat="47.69727" lon="-2.33647">
        <ele>32.34</ele>
        <time>2014-08-04T09:11:07Z</time>
      </trkpt>
      <trkpt lat="47.69723" lon="-2.33647">
        <ele>32.82</ele>
        <time>2014-08-04T09:11:10Z</time>
      </trkpt>
      <trkpt lat="47.69707" lon="-2.33662">
        <ele>33.78</ele>
        <time>2014-08-04T09:11:27Z</time>
      </trkpt>
      <trkpt lat="47.69705" lon="-2.33666">
        <ele>33.78</ele>
        <time>2014-08-04T09:11:30Z</time>
      </trkpt>
      <trkpt lat="47.69702" lon="-2.33673">
        <ele>34.26</ele>
        <time>2014-08-04T09:11:35Z</time>
      </trkpt>
      <trkpt lat="47.69692" lon="-2.33696">
        <ele>35.71</ele>
        <time>2014-08-04T09:11:51Z</time>
      </trkpt>
      <trkpt lat="47.69684" lon="-2.33715">
        <ele>36.67</ele>
        <time>2014-08-04T09:12:04Z</time>
      </trkpt>
      <trkpt lat="47.69678" lon="-2.33733">
        <ele>37.63</ele>
        <time>2014-08-04T09:12:20Z</time>
      </trkpt>
      <trkpt lat="47.69675" lon="-2.33743">
        <ele>38.59</ele>
        <time>2014-08-04T09:12:29Z</time>
      </trkpt>
      <trkpt lat="47.69675" lon="-2.33752">
        <ele>39.07</ele>
        <time>2014-08-04T09:12:33Z</time>
      </trkpt>
      <trkpt lat="47.69666" lon="-2.33783">
        <ele>40.51</ele>
        <time>2014-08-04T09:12:51Z</time>
      </trkpt>
      <trkpt lat="47.69664" lon="-2.33826">
        <ele>41.47</ele>
        <time>2014-08-04T09:13:10Z</time>
      </trkpt>
      <trkpt lat="47.69666" lon="-2.33865">
        <ele>42.44</ele>
        <time>2014-08-04T09:13:30Z</time>
      </trkpt>
      <trkpt lat="47.69664" lon="-2.33892">
        <ele>44.36</ele>
        <time>2014-08-04T09:13:46Z</time>
      </trkpt>
      <trkpt lat="47.69664" lon="-2.33893">
        <ele>44.36</ele>
        <time>2014-08-04T09:13:47Z</time>
      </trkpt>
      <trkpt lat="47.69659" lon="-2.33918">
        <ele>45.32</ele>
        <time>2014-08-04T09:14:03Z</time>
      </trkpt>
      <trkpt lat="47.69658" lon="-2.3392">
        <ele>45.8</ele>
        <time>2014-08-04T09:14:05Z</time>
      </trkpt>
      <trkpt lat="47.69641" lon="-2.33932">
        <ele>46.76</ele>
        <time>2014-08-04T09:14:22Z</time>
      </trkpt>
      <trkpt lat="47.69614" lon="-2.33943">
        <ele>48.68</ele>
        <time>2014-08-04T09:14:41Z</time>
      </trkpt>
      <trkpt lat="47.69593" lon="-2.33949">
        <ele>50.13</ele>
        <time>2014-08-04T09:15:00Z</time>
      </trkpt>
      <trkpt lat="47.69575" lon="-2.33952">
        <ele>51.57</ele>
        <time>2014-08-04T09:15:17Z</time>
      </trkpt>
      <trkpt lat="47.69551" lon="-2.33952">
        <ele>53.01</ele>
        <time>2014-08-04T09:15:35Z</time>
      </trkpt>
      <trkpt lat="47.6953" lon="-2.33948">
        <ele>54.93</ele>
        <time>2014-08-04T09:15:52Z</time>
      </trkpt>
      <trkpt lat="47.69517" lon="-2.33948">
        <ele>55.89</ele>
        <time>2014-08-04T09:16:03Z</time>
      </trkpt>
      <trkpt lat="47.69505" lon="-2.33953">
        <ele>56.86</ele>
        <time>2014-08-04T09:16:14Z</time>
      </trkpt>
      <trkpt lat="47.69487" lon="-2.33961">
        <ele>58.3</ele>
        <time>2014-08-04T09:16:32Z</time>
      </trkpt>
      <trkpt lat="47.69482" lon="-2.33964">
        <ele>58.3</ele>
        <time>2014-08-04T09:16:38Z</time>
      </trkpt>
      <trkpt lat="47.6946" lon="-2.33983">
        <ele>59.74</ele>
        <time>2014-08-04T09:16:57Z</time>
      </trkpt>
      <trkpt lat="47.69445" lon="-2.33996">
        <ele>60.22</ele>
        <time>2014-08-04T09:17:11Z</time>
      </trkpt>
      <trkpt lat="47.69441" lon="-2.33999">
        <ele>60.7</ele>
        <time>2014-08-04T09:17:14Z</time>
      </trkpt>
      <trkpt lat="47.69424" lon="-2.34013">
        <ele>61.66</ele>
        <time>2014-08-04T09:17:30Z</time>
      </trkpt>
      <trkpt lat="47.69399" lon="-2.34028">
        <ele>62.62</ele>
        <time>2014-08-04T09:17:52Z</time>
      </trkpt>
      <trkpt lat="47.69374" lon="-2.34036">
        <ele>63.58</ele>
        <time>2014-08-04T09:18:11Z</time>
      </trkpt>
      <trkpt lat="47.69356" lon="-2.3405">
        <ele>64.55</ele>
        <time>2014-08-04T09:18:27Z</time>
      </trkpt>
      <trkpt lat="47.6934" lon="-2.3406">
        <ele>65.51</ele>
        <time>2014-08-04T09:18:42Z</time>
      </trkpt>
      <trkpt lat="47.69315" lon="-2.34074">
        <ele>66.95</ele>
        <time>2014-08-04T09:19:03Z</time>
      </trkpt>
      <trkpt lat="47.69295" lon="-2.34085">
        <ele>67.43</ele>
        <time>2014-08-04T09:19:21Z</time>
      </trkpt>
      <trkpt lat="47.6928" lon="-2.34092">
        <ele>67.91</ele>
        <time>2014-08-04T09:19:36Z</time>
      </trkpt>
      <trkpt lat="47.69265" lon="-2.34092">
        <ele>67.91</ele>
        <time>2014-08-04T09:19:47Z</time>
      </trkpt>
      <trkpt lat="47.69263" lon="-2.34092">
        <ele>67.91</ele>
        <time>2014-08-04T09:19:49Z</time>
      </trkpt>
      <trkpt lat="47.69256" lon="-2.34112">
        <ele>68.39</ele>
        <time>2014-08-04T09:20:05Z</time>
      </trkpt>
      <trkpt lat="47.69254" lon="-2.3413">
        <ele>68.39</ele>
        <time>2014-08-04T09:20:21Z</time>
      </trkpt>
      <trkpt lat="47.69247" lon="-2.34142">
        <ele>67.91</ele>
        <time>2014-08-04T09:20:43Z</time>
      </trkpt>
      <trkpt lat="47.69239" lon="-2.34156">
        <ele>67.91</ele>
        <time>2014-08-04T09:20:55Z</time>
      </trkpt>
      <trkpt lat="47.69237" lon="-2.34158">
        <ele>67.43</ele>
        <time>2014-08-04T09:20:58Z</time>
      </trkpt>
      <trkpt lat="47.69227" lon="-2.34167">
        <ele>66.95</ele>
        <time>2014-08-04T09:21:09Z</time>
      </trkpt>
      <trkpt lat="47.69226" lon="-2.34172">
        <ele>66.95</ele>
        <time>2014-08-04T09:21:12Z</time>
      </trkpt>
      <trkpt lat="47.69233" lon="-2.34192">
        <ele>67.91</ele>
        <time>2014-08-04T09:21:25Z</time>
      </trkpt>
      <trkpt lat="47.69236" lon="-2.34208">
        <ele>67.91</ele>
        <time>2014-08-04T09:21:36Z</time>
      </trkpt>
      <trkpt lat="47.69236" lon="-2.34215">
        <ele>67.91</ele>
        <time>2014-08-04T09:21:43Z</time>
      </trkpt>
      <trkpt lat="47.69223" lon="-2.3422">
        <ele>66.95</ele>
        <time>2014-08-04T09:21:57Z</time>
      </trkpt>
      <trkpt lat="47.69222" lon="-2.34224">
        <ele>66.95</ele>
        <time>2014-08-04T09:22:00Z</time>
      </trkpt>
      <trkpt lat="47.69213" lon="-2.34224">
        <ele>65.99</ele>
        <time>2014-08-04T09:22:13Z</time>
      </trkpt>
      <trkpt lat="47.69211" lon="-2.34218">
        <ele>65.99</ele>
        <time>2014-08-04T09:22:18Z</time>
      </trkpt>
      <trkpt lat="47.69197" lon="-2.3421">
        <ele>64.55</ele>
        <time>2014-08-04T09:22:33Z</time>
      </trkpt>
      <trkpt lat="47.69195" lon="-2.3421">
        <ele>64.07</ele>
        <time>2014-08-04T09:22:34Z</time>
      </trkpt>
      <trkpt lat="47.6919" lon="-2.34216">
        <ele>63.58</ele>
        <time>2014-08-04T09:22:47Z</time>
      </trkpt>
      <trkpt lat="47.69192" lon="-2.34228">
        <ele>63.58</ele>
        <time>2014-08-04T09:22:54Z</time>
      </trkpt>
      <trkpt lat="47.69186" lon="-2.34254">
        <ele>62.62</ele>
        <time>2014-08-04T09:23:11Z</time>
      </trkpt>
      <trkpt lat="47.69186" lon="-2.34263">
        <ele>62.14</ele>
        <time>2014-08-04T09:23:16Z</time>
      </trkpt>
      <trkpt lat="47.69185" lon="-2.34286">
        <ele>62.14</ele>
        <time>2014-08-04T09:23:33Z</time>
      </trkpt>
      <trkpt lat="47.69175" lon="-2.34291">
        <ele>58.78</ele>
        <time>2014-08-04T09:23:43Z</time>
      </trkpt>
      <trkpt lat="47.69171" lon="-2.3431">
        <ele>56.86</ele>
        <time>2014-08-04T09:23:57Z</time>
      </trkpt>
      <trkpt lat="47.69169" lon="-2.34321">
        <ele>55.89</ele>
        <time>2014-08-04T09:24:07Z</time>
      </trkpt>
      <trkpt lat="47.69165" lon="-2.34343">
        <ele>53.49</ele>
        <time>2014-08-04T09:24:24Z</time>
      </trkpt>
      <trkpt lat="47.69163" lon="-2.34337">
        <ele>53.49</ele>
        <time>2014-08-04T09:24:39Z</time>
      </trkpt>
      <trkpt lat="47.6916" lon="-2.34327">
        <ele>52.53</ele>
        <time>2014-08-04T09:24:46Z</time>
      </trkpt>
      <trkpt lat="47.6915" lon="-2.34307">
        <ele>49.16</ele>
        <time>2014-08-04T09:25:01Z</time>
      </trkpt>
      <trkpt lat="47.69148" lon="-2.34301">
        <ele>48.68</ele>
        <time>2014-08-04T09:25:13Z</time>
      </trkpt>
      <trkpt lat="47.69137" lon="-2.34291">
        <ele>45.8</ele>
        <time>2014-08-04T09:25:25Z</time>
      </trkpt>
      <trkpt lat="47.69136" lon="-2.3429">
        <ele>45.32</ele>
        <time>2014-08-04T09:25:27Z</time>
      </trkpt>
      <trkpt lat="47.69133" lon="-2.34288">
        <ele>44.36</ele>
        <time>2014-08-04T09:25:39Z</time>
      </trkpt>
      <trkpt lat="47.69129" lon="-2.34288">
        <ele>44.36</ele>
        <time>2014-08-04T09:25:57Z</time>
      </trkpt>
      <trkpt lat="47.69122" lon="-2.34287">
        <ele>43.88</ele>
        <time>2014-08-04T09:26:10Z</time>
      </trkpt>
      <trkpt lat="47.69112" lon="-2.34265">
        <ele>43.4</ele>
        <time>2014-08-04T09:26:25Z</time>
      </trkpt>
      <trkpt lat="47.69105" lon="-2.34251">
        <ele>43.4</ele>
        <time>2014-08-04T09:26:34Z</time>
      </trkpt>
      <trkpt lat="47.69096" lon="-2.34223">
        <ele>43.88</ele>
        <time>2014-08-04T09:26:54Z</time>
      </trkpt>
      <trkpt lat="47.69088" lon="-2.34205">
        <ele>43.88</ele>
        <time>2014-08-04T09:27:07Z</time>
      </trkpt>
      <trkpt lat="47.69086" lon="-2.34203">
        <ele>43.88</ele>
        <time>2014-08-04T09:27:12Z</time>
      </trkpt>
      <trkpt lat="47.69072" lon="-2.34171">
        <ele>44.84</ele>
        <time>2014-08-04T09:27:33Z</time>
      </trkpt>
      <trkpt lat="47.69062" lon="-2.34141">
        <ele>46.28</ele>
        <time>2014-08-04T09:27:52Z</time>
      </trkpt>
      <trkpt lat="47.69056" lon="-2.34117">
        <ele>46.76</ele>
        <time>2014-08-04T09:28:07Z</time>
      </trkpt>
      <trkpt lat="47.69053" lon="-2.34107">
        <ele>47.72</ele>
        <time>2014-08-04T09:28:13Z</time>
      </trkpt>
      <trkpt lat="47.69044" lon="-2.34082">
        <ele>48.68</ele>
        <time>2014-08-04T09:28:30Z</time>
      </trkpt>
      <trkpt lat="47.6903" lon="-2.34062">
        <ele>49.65</ele>
        <time>2014-08-04T09:28:46Z</time>
      </trkpt>
      <trkpt lat="47.69011" lon="-2.34042">
        <ele>50.61</ele>
        <time>2014-08-04T09:29:03Z</time>
      </trkpt>
      <trkpt lat="47.69009" lon="-2.34038">
        <ele>51.09</ele>
        <time>2014-08-04T09:29:06Z</time>
      </trkpt>
      <trkpt lat="47.68999" lon="-2.34018">
        <ele>52.05</ele>
        <time>2014-08-04T09:29:20Z</time>
      </trkpt>
      <trkpt lat="47.68988" lon="-2.33987">
        <ele>53.97</ele>
        <time>2014-08-04T09:29:39Z</time>
      </trkpt>
      <trkpt lat="47.68982" lon="-2.33969">
        <ele>54.45</ele>
        <time>2014-08-04T09:29:54Z</time>
      </trkpt>
      <trkpt lat="47.68968" lon="-2.3395">
        <ele>56.37</ele>
        <time>2014-08-04T09:30:10Z</time>
      </trkpt>
      <trkpt lat="47.6895" lon="-2.33939">
        <ele>56.86</ele>
        <time>2014-08-04T09:30:27Z</time>
      </trkpt>
      <trkpt lat="47.68936" lon="-2.3393">
        <ele>57.34</ele>
        <time>2014-08-04T09:30:40Z</time>
      </trkpt>
      <trkpt lat="47.6892" lon="-2.3392">
        <ele>58.3</ele>
        <time>2014-08-04T09:30:55Z</time>
      </trkpt>
      <trkpt lat="47.68904" lon="-2.3391">
        <ele>59.74</ele>
        <time>2014-08-04T09:31:10Z</time>
      </trkpt>
      <trkpt lat="47.68901" lon="-2.33908">
        <ele>59.74</ele>
        <time>2014-08-04T09:31:13Z</time>
      </trkpt>
      <trkpt lat="47.68882" lon="-2.33896">
        <ele>61.18</ele>
        <time>2014-08-04T09:31:29Z</time>
      </trkpt>
      <trkpt lat="47.68867" lon="-2.33887">
        <ele>62.14</ele>
        <time>2014-08-04T09:31:44Z</time>
      </trkpt>
      <trkpt lat="47.68849" lon="-2.33881">
        <ele>62.62</ele>
        <time>2014-08-04T09:31:57Z</time>
      </trkpt>
      <trkpt lat="47.68834" lon="-2.33873">
        <ele>63.1</ele>
        <time>2014-08-04T09:32:10Z</time>
      </trkpt>
      <trkpt lat="47.6883" lon="-2.33872">
        <ele>63.1</ele>
        <time>2014-08-04T09:32:13Z</time>
      </trkpt>
      <trkpt lat="47.68825" lon="-2.33868">
        <ele>63.1</ele>
        <time>2014-08-04T09:32:18Z</time>
      </trkpt>
      <trkpt lat="47.68811" lon="-2.33853">
        <ele>64.07</ele>
        <time>2014-08-04T09:32:32Z</time>
      </trkpt>
      <trkpt lat="47.68791" lon="-2.33836">
        <ele>64.55</ele>
        <time>2014-08-04T09:32:49Z</time>
      </trkpt>
      <trkpt lat="47.68774" lon="-2.33827">
        <ele>65.51</ele>
        <time>2014-08-04T09:33:06Z</time>
      </trkpt>
      <trkpt lat="47.68751" lon="-2.33825">
        <ele>65.99</ele>
        <time>2014-08-04T09:33:23Z</time>
      </trkpt>
      <trkpt lat="47.68748" lon="-2.33824">
        <ele>65.99</ele>
        <time>2014-08-04T09:33:25Z</time>
      </trkpt>
      <trkpt lat="47.68729" lon="-2.33835">
        <ele>66.47</ele>
        <time>2014-08-04T09:33:44Z</time>
      </trkpt>
      <trkpt lat="47.68726" lon="-2.3384">
        <ele>66.47</ele>
        <time>2014-08-04T09:33:48Z</time>
      </trkpt>
      <trkpt lat="47.68716" lon="-2.33859">
        <ele>66.47</ele>
        <time>2014-08-04T09:34:02Z</time>
      </trkpt>
      <trkpt lat="47.68713" lon="-2.33866">
        <ele>66.47</ele>
        <time>2014-08-04T09:34:07Z</time>
      </trkpt>
      <trkpt lat="47.68708" lon="-2.33889">
        <ele>66.95</ele>
        <time>2014-08-04T09:34:23Z</time>
      </trkpt>
      <trkpt lat="47.68703" lon="-2.33908">
        <ele>66.95</ele>
        <time>2014-08-04T09:34:36Z</time>
      </trkpt>
      <trkpt lat="47.68697" lon="-2.33939">
        <ele>67.43</ele>
        <time>2014-08-04T09:34:53Z</time>
      </trkpt>
      <trkpt lat="47.68692" lon="-2.33958">
        <ele>66.95</ele>
        <time>2014-08-04T09:35:07Z</time>
      </trkpt>
      <trkpt lat="47.6869" lon="-2.33962">
        <ele>67.43</ele>
        <time>2014-08-04T09:35:09Z</time>
      </trkpt>
      <trkpt lat="47.68688" lon="-2.33966">
        <ele>66.95</ele>
        <time>2014-08-04T09:35:12Z</time>
      </trkpt>
      <trkpt lat="47.68681" lon="-2.33983">
        <ele>66.95</ele>
        <time>2014-08-04T09:35:24Z</time>
      </trkpt>
      <trkpt lat="47.68671" lon="-2.33989">
        <ele>66.95</ele>
        <time>2014-08-04T09:35:36Z</time>
      </trkpt>
      <trkpt lat="47.68676" lon="-2.34004">
        <ele>67.91</ele>
        <time>2014-08-04T09:35:50Z</time>
      </trkpt>
      <trkpt lat="47.68677" lon="-2.34007">
        <ele>68.39</ele>
        <time>2014-08-04T09:35:52Z</time>
      </trkpt>
      <trkpt lat="47.68683" lon="-2.34025">
        <ele>69.83</ele>
        <time>2014-08-04T09:36:03Z</time>
      </trkpt>
      <trkpt lat="47.68685" lon="-2.34054">
        <ele>70.79</ele>
        <time>2014-08-04T09:36:19Z</time>
      </trkpt>
      <trkpt lat="47.6868" lon="-2.34079">
        <ele>71.76</ele>
        <time>2014-08-04T09:36:33Z</time>
      </trkpt>
      <trkpt lat="47.68677" lon="-2.3411">
        <ele>73.2</ele>
        <time>2014-08-04T09:36:50Z</time>
      </trkpt>
      <trkpt lat="47.68673" lon="-2.34136">
        <ele>73.68</ele>
        <time>2014-08-04T09:37:04Z</time>
      </trkpt>
      <trkpt lat="47.68661" lon="-2.34156">
        <ele>74.64</ele>
        <time>2014-08-04T09:37:19Z</time>
      </trkpt>
      <trkpt lat="47.68659" lon="-2.34157">
        <ele>74.64</ele>
        <time>2014-08-04T09:37:21Z</time>
      </trkpt>
      <trkpt lat="47.68637" lon="-2.34167">
        <ele>74.16</ele>
        <time>2014-08-04T09:37:40Z</time>
      </trkpt>
      <trkpt lat="47.68618" lon="-2.34179">
        <ele>74.16</ele>
        <time>2014-08-04T09:37:56Z</time>
      </trkpt>
      <trkpt lat="47.68597" lon="-2.34192">
        <ele>73.68</ele>
        <time>2014-08-04T09:38:14Z</time>
      </trkpt>
      <trkpt lat="47.68577" lon="-2.34201">
        <ele>73.2</ele>
        <time>2014-08-04T09:38:29Z</time>
      </trkpt>
      <trkpt lat="47.68557" lon="-2.34212">
        <ele>73.2</ele>
        <time>2014-08-04T09:38:46Z</time>
      </trkpt>
      <trkpt lat="47.68555" lon="-2.34214">
        <ele>73.2</ele>
        <time>2014-08-04T09:38:48Z</time>
      </trkpt>
      <trkpt lat="47.68551" lon="-2.34215">
        <ele>73.2</ele>
        <time>2014-08-04T09:38:51Z</time>
      </trkpt>
      <trkpt lat="47.68528" lon="-2.34224">
        <ele>73.2</ele>
        <time>2014-08-04T09:39:09Z</time>
      </trkpt>
      <trkpt lat="47.6852" lon="-2.34229">
        <ele>73.68</ele>
        <time>2014-08-04T09:39:16Z</time>
      </trkpt>
      <trkpt lat="47.68514" lon="-2.34232">
        <ele>73.68</ele>
        <time>2014-08-04T09:39:21Z</time>
      </trkpt>
      <trkpt lat="47.68507" lon="-2.34237">
        <ele>73.2</ele>
        <time>2014-08-04T09:39:28Z</time>
      </trkpt>
      <trkpt lat="47.68502" lon="-2.34239">
        <ele>73.68</ele>
        <time>2014-08-04T09:39:31Z</time>
      </trkpt>
      <trkpt lat="47.68484" lon="-2.34251">
        <ele>74.16</ele>
        <time>2014-08-04T09:39:47Z</time>
      </trkpt>
      <trkpt lat="47.68462" lon="-2.3427">
        <ele>73.68</ele>
        <time>2014-08-04T09:40:06Z</time>
      </trkpt>
      <trkpt lat="47.68439" lon="-2.34278">
        <ele>73.2</ele>
        <time>2014-08-04T09:40:24Z</time>
      </trkpt>
      <trkpt lat="47.68422" lon="-2.34297">
        <ele>72.72</ele>
        <time>2014-08-04T09:40:41Z</time>
      </trkpt>
      <trkpt lat="47.68402" lon="-2.34319">
        <ele>71.76</ele>
        <time>2014-08-04T09:40:59Z</time>
      </trkpt>
      <trkpt lat="47.68386" lon="-2.34333">
        <ele>71.76</ele>
        <time>2014-08-04T09:41:14Z</time>
      </trkpt>
      <trkpt lat="47.6838" lon="-2.3434">
        <ele>71.76</ele>
        <time>2014-08-04T09:41:20Z</time>
      </trkpt>
      <trkpt lat="47.68361" lon="-2.3436">
        <ele>71.76</ele>
        <time>2014-08-04T09:41:39Z</time>
      </trkpt>
      <trkpt lat="47.68341" lon="-2.34378">
        <ele>72.24</ele>
        <time>2014-08-04T09:41:59Z</time>
      </trkpt>
      <trkpt lat="47.68327" lon="-2.34389">
        <ele>73.2</ele>
        <time>2014-08-04T09:42:12Z</time>
      </trkpt>
      <trkpt lat="47.68312" lon="-2.34402">
        <ele>73.68</ele>
        <time>2014-08-04T09:42:27Z</time>
      </trkpt>
      <trkpt lat="47.68295" lon="-2.34418">
        <ele>74.64</ele>
        <time>2014-08-04T09:42:43Z</time>
      </trkpt>
      <trkpt lat="47.68284" lon="-2.34426">
        <ele>75.12</ele>
        <time>2014-08-04T09:42:53Z</time>
      </trkpt>
      <trkpt lat="47.68282" lon="-2.34459">
        <ele>75.12</ele>
        <time>2014-08-04T09:43:10Z</time>
      </trkpt>
      <trkpt lat="47.68286" lon="-2.34488">
        <ele>75.12</ele>
        <time>2014-08-04T09:43:26Z</time>
      </trkpt>
      <trkpt lat="47.6829" lon="-2.34518">
        <ele>75.6</ele>
        <time>2014-08-04T09:43:43Z</time>
      </trkpt>
      <trkpt lat="47.68293" lon="-2.34537">
        <ele>75.6</ele>
        <time>2014-08-04T09:43:53Z</time>
      </trkpt>
      <trkpt lat="47.68296" lon="-2.34563">
        <ele>76.56</ele>
        <time>2014-08-04T09:44:08Z</time>
      </trkpt>
      <trkpt lat="47.68302" lon="-2.3459">
        <ele>76.08</ele>
        <time>2014-08-04T09:44:23Z</time>
      </trkpt>
      <trkpt lat="47.68306" lon="-2.34607">
        <ele>76.56</ele>
        <time>2014-08-04T09:44:32Z</time>
      </trkpt>
      <trkpt lat="47.6831" lon="-2.3462">
        <ele>76.56</ele>
        <time>2014-08-04T09:44:40Z</time>
      </trkpt>
      <trkpt lat="47.68321" lon="-2.34654">
        <ele>77.04</ele>
        <time>2014-08-04T09:45:00Z</time>
      </trkpt>
      <trkpt lat="47.68331" lon="-2.34687">
        <ele>77.52</ele>
        <time>2014-08-04T09:45:19Z</time>
      </trkpt>
      <trkpt lat="47.68339" lon="-2.34717">
        <ele>77.04</ele>
        <time>2014-08-04T09:45:36Z</time>
      </trkpt>
      <trkpt lat="47.68345" lon="-2.34741">
        <ele>77.04</ele>
        <time>2014-08-04T09:45:50Z</time>
      </trkpt>
      <trkpt lat="47.68348" lon="-2.34755">
        <ele>77.04</ele>
        <time>2014-08-04T09:45:58Z</time>
      </trkpt>
      <trkpt lat="47.68353" lon="-2.34789">
        <ele>76.56</ele>
        <time>2014-08-04T09:46:16Z</time>
      </trkpt>
      <trkpt lat="47.68355" lon="-2.34816">
        <ele>76.08</ele>
        <time>2014-08-04T09:46:31Z</time>
      </trkpt>
      <trkpt lat="47.68356" lon="-2.34845">
        <ele>75.6</ele>
        <time>2014-08-04T09:46:47Z</time>
      </trkpt>
      <trkpt lat="47.68356" lon="-2.34885">
        <ele>75.12</ele>
        <time>2014-08-04T09:47:07Z</time>
      </trkpt>
      <trkpt lat="47.68361" lon="-2.34919">
        <ele>74.64</ele>
        <time>2014-08-04T09:47:25Z</time>
      </trkpt>
      <trkpt lat="47.68372" lon="-2.34949">
        <ele>74.16</ele>
        <time>2014-08-04T09:47:43Z</time>
      </trkpt>
      <trkpt lat="47.68395" lon="-2.34953">
        <ele>73.68</ele>
        <time>2014-08-04T09:48:01Z</time>
      </trkpt>
      <trkpt lat="47.68424" lon="-2.34961">
        <ele>72.72</ele>
        <time>2014-08-04T09:48:24Z</time>
      </trkpt>
      <trkpt lat="47.6844" lon="-2.34963">
        <ele>72.24</ele>
        <time>2014-08-04T09:48:37Z</time>
      </trkpt>
      <trkpt lat="47.68453" lon="-2.34964">
        <ele>71.27</ele>
        <time>2014-08-04T09:48:48Z</time>
      </trkpt>
      <trkpt lat="47.68481" lon="-2.34965">
        <ele>70.31</ele>
        <time>2014-08-04T09:49:08Z</time>
      </trkpt>
      <trkpt lat="47.68507" lon="-2.34956">
        <ele>68.87</ele>
        <time>2014-08-04T09:49:29Z</time>
      </trkpt>
      <trkpt lat="47.68531" lon="-2.34947">
        <ele>67.91</ele>
        <time>2014-08-04T09:49:47Z</time>
      </trkpt>
      <trkpt lat="47.68558" lon="-2.34936">
        <ele>67.43</ele>
        <time>2014-08-04T09:50:10Z</time>
      </trkpt>
      <trkpt lat="47.68578" lon="-2.34923">
        <ele>67.43</ele>
        <time>2014-08-04T09:50:29Z</time>
      </trkpt>
      <trkpt lat="47.68588" lon="-2.34899">
        <ele>67.91</ele>
        <time>2014-08-04T09:50:44Z</time>
      </trkpt>
      <trkpt lat="47.68603" lon="-2.34889">
        <ele>67.43</ele>
        <time>2014-08-04T09:50:59Z</time>
      </trkpt>
      <trkpt lat="47.68626" lon="-2.34877">
        <ele>65.51</ele>
        <time>2014-08-04T09:51:17Z</time>
      </trkpt>
      <trkpt lat="47.68649" lon="-2.34871">
        <ele>63.1</ele>
        <time>2014-08-04T09:51:34Z</time>
      </trkpt>
      <trkpt lat="47.6867" lon="-2.3486">
        <ele>61.18</ele>
        <time>2014-08-04T09:51:51Z</time>
      </trkpt>
      <trkpt lat="47.68684" lon="-2.34846">
        <ele>60.7</ele>
        <time>2014-08-04T09:52:04Z</time>
      </trkpt>
      <trkpt lat="47.68685" lon="-2.34844">
        <ele>60.22</ele>
        <time>2014-08-04T09:52:06Z</time>
      </trkpt>
      <trkpt lat="47.68691" lon="-2.34835">
        <ele>59.26</ele>
        <time>2014-08-04T09:52:14Z</time>
      </trkpt>
      <trkpt lat="47.68706" lon="-2.34821">
        <ele>57.34</ele>
        <time>2014-08-04T09:52:28Z</time>
      </trkpt>
      <trkpt lat="47.68724" lon="-2.34805">
        <ele>55.41</ele>
        <time>2014-08-04T09:52:44Z</time>
      </trkpt>
      <trkpt lat="47.6874" lon="-2.34791">
        <ele>53.49</ele>
        <time>2014-08-04T09:53:00Z</time>
      </trkpt>
      <trkpt lat="47.68755" lon="-2.34775">
        <ele>53.01</ele>
        <time>2014-08-04T09:53:14Z</time>
      </trkpt>
      <trkpt lat="47.68764" lon="-2.34753">
        <ele>53.01</ele>
        <time>2014-08-04T09:53:29Z</time>
      </trkpt>
      <trkpt lat="47.68781" lon="-2.34724">
        <ele>53.01</ele>
        <time>2014-08-04T09:53:46Z</time>
      </trkpt>
      <trkpt lat="47.68799" lon="-2.34703">
        <ele>53.01</ele>
        <time>2014-08-04T09:54:04Z</time>
      </trkpt>
      <trkpt lat="47.68808" lon="-2.34684">
        <ele>53.49</ele>
        <time>2014-08-04T09:54:22Z</time>
      </trkpt>
      <trkpt lat="47.68813" lon="-2.34678">
        <ele>53.49</ele>
        <time>2014-08-04T09:54:34Z</time>
      </trkpt>
      <trkpt lat="47.68817" lon="-2.3468">
        <ele>53.49</ele>
        <time>2014-08-04T09:54:50Z</time>
      </trkpt>
      <trkpt lat="47.68808" lon="-2.34689">
        <ele>53.49</ele>
        <time>2014-08-04T09:55:04Z</time>
      </trkpt>
      <trkpt lat="47.68796" lon="-2.34703">
        <ele>53.01</ele>
        <time>2014-08-04T09:55:20Z</time>
      </trkpt>
      <trkpt lat="47.68797" lon="-2.34697">
        <ele>53.01</ele>
        <time>2014-08-04T09:55:41Z</time>
      </trkpt>
      <trkpt lat="47.68799" lon="-2.347">
        <ele>53.01</ele>
        <time>2014-08-04T09:55:59Z</time>
      </trkpt>
      <trkpt lat="47.68806" lon="-2.34691">
        <ele>53.49</ele>
        <time>2014-08-04T09:56:28Z</time>
      </trkpt>
      <trkpt lat="47.68815" lon="-2.34685">
        <ele>53.49</ele>
        <time>2014-08-04T09:56:40Z</time>
      </trkpt>
      <trkpt lat="47.68818" lon="-2.34686">
        <ele>53.97</ele>
        <time>2014-08-04T09:56:54Z</time>
      </trkpt>
      <trkpt lat="47.68818" lon="-2.34685">
        <ele>53.97</ele>
        <time>2014-08-04T09:57:06Z</time>
      </trkpt>
      <trkpt lat="47.68822" lon="-2.34685">
        <ele>53.49</ele>
        <time>2014-08-04T09:57:19Z</time>
      </trkpt>
      <trkpt lat="47.68824" lon="-2.34682">
        <ele>53.97</ele>
        <time>2014-08-04T09:57:24Z</time>
      </trkpt>
      <trkpt lat="47.6883" lon="-2.34676">
        <ele>53.49</ele>
        <time>2014-08-04T09:57:36Z</time>
      </trkpt>
      <trkpt lat="47.68832" lon="-2.34673">
        <ele>53.49</ele>
        <time>2014-08-04T09:57:48Z</time>
      </trkpt>
      <trkpt lat="47.68834" lon="-2.3467">
        <ele>53.49</ele>
        <time>2014-08-04T09:58:03Z</time>
      </trkpt>
      <trkpt lat="47.68833" lon="-2.34669">
        <ele>53.01</ele>
        <time>2014-08-04T09:58:20Z</time>
      </trkpt>
      <trkpt lat="47.68832" lon="-2.3467">
        <ele>53.49</ele>
        <time>2014-08-04T09:58:37Z</time>
      </trkpt>
      <trkpt lat="47.68832" lon="-2.34668">
        <ele>53.97</ele>
        <time>2014-08-04T09:58:56Z</time>
      </trkpt>
      <trkpt lat="47.68826" lon="-2.34656">
        <ele>54.45</ele>
        <time>2014-08-04T09:59:08Z</time>
      </trkpt>
      <trkpt lat="47.6883" lon="-2.3464">
        <ele>53.97</ele>
        <time>2014-08-04T09:59:17Z</time>
      </trkpt>
      <trkpt lat="47.68829" lon="-2.34612">
        <ele>54.45</ele>
        <time>2014-08-04T09:59:32Z</time>
      </trkpt>
      <trkpt lat="47.68829" lon="-2.34602">
        <ele>54.45</ele>
        <time>2014-08-04T09:59:38Z</time>
      </trkpt>
      <trkpt lat="47.68826" lon="-2.34578">
        <ele>54.93</ele>
        <time>2014-08-04T09:59:53Z</time>
      </trkpt>
      <trkpt lat="47.68824" lon="-2.34553">
        <ele>54.93</ele>
        <time>2014-08-04T10:00:08Z</time>
      </trkpt>
      <trkpt lat="47.68824" lon="-2.34542">
        <ele>54.93</ele>
        <time>2014-08-04T10:00:14Z</time>
      </trkpt>
      <trkpt lat="47.68826" lon="-2.34524">
        <ele>55.89</ele>
        <time>2014-08-04T10:00:24Z</time>
      </trkpt>
      <trkpt lat="47.6883" lon="-2.34497">
        <ele>55.89</ele>
        <time>2014-08-04T10:00:40Z</time>
      </trkpt>
      <trkpt lat="47.68833" lon="-2.34475">
        <ele>56.37</ele>
        <time>2014-08-04T10:00:53Z</time>
      </trkpt>
      <trkpt lat="47.68833" lon="-2.34473">
        <ele>56.37</ele>
        <time>2014-08-04T10:00:54Z</time>
      </trkpt>
      <trkpt lat="47.68839" lon="-2.34453">
        <ele>56.37</ele>
        <time>2014-08-04T10:01:11Z</time>
      </trkpt>
      <trkpt lat="47.68846" lon="-2.34434">
        <ele>55.89</ele>
        <time>2014-08-04T10:01:26Z</time>
      </trkpt>
      <trkpt lat="47.6885" lon="-2.34434">
        <ele>55.89</ele>
        <time>2014-08-04T10:01:29Z</time>
      </trkpt>
      <trkpt lat="47.68866" lon="-2.34435">
        <ele>54.45</ele>
        <time>2014-08-04T10:01:43Z</time>
      </trkpt>
      <trkpt lat="47.68878" lon="-2.34432">
        <ele>53.97</ele>
        <time>2014-08-04T10:01:54Z</time>
      </trkpt>
      <trkpt lat="47.68899" lon="-2.34434">
        <ele>52.05</ele>
        <time>2014-08-04T10:02:12Z</time>
      </trkpt>
      <trkpt lat="47.68916" lon="-2.34428">
        <ele>51.09</ele>
        <time>2014-08-04T10:02:27Z</time>
      </trkpt>
      <trkpt lat="47.68921" lon="-2.34404">
        <ele>52.53</ele>
        <time>2014-08-04T10:02:42Z</time>
      </trkpt>
      <trkpt lat="47.68923" lon="-2.34385">
        <ele>53.01</ele>
        <time>2014-08-04T10:02:54Z</time>
      </trkpt>
      <trkpt lat="47.68924" lon="-2.34373">
        <ele>53.01</ele>
        <time>2014-08-04T10:03:01Z</time>
      </trkpt>
      <trkpt lat="47.68927" lon="-2.34346">
        <ele>53.01</ele>
        <time>2014-08-04T10:03:16Z</time>
      </trkpt>
      <trkpt lat="47.68929" lon="-2.34341">
        <ele>53.01</ele>
        <time>2014-08-04T10:03:19Z</time>
      </trkpt>
      <trkpt lat="47.68939" lon="-2.34339">
        <ele>53.01</ele>
        <time>2014-08-04T10:03:27Z</time>
      </trkpt>
      <trkpt lat="47.68956" lon="-2.34333">
        <ele>52.53</ele>
        <time>2014-08-04T10:03:42Z</time>
      </trkpt>
      <trkpt lat="47.68956" lon="-2.3431">
        <ele>52.53</ele>
        <time>2014-08-04T10:03:56Z</time>
      </trkpt>
      <trkpt lat="47.68953" lon="-2.34298">
        <ele>52.05</ele>
        <time>2014-08-04T10:04:03Z</time>
      </trkpt>
      <trkpt lat="47.68948" lon="-2.34282">
        <ele>52.05</ele>
        <time>2014-08-04T10:04:13Z</time>
      </trkpt>
      <trkpt lat="47.68949" lon="-2.34256">
        <ele>52.05</ele>
        <time>2014-08-04T10:04:29Z</time>
      </trkpt>
      <trkpt lat="47.68958" lon="-2.34255">
        <ele>52.05</ele>
        <time>2014-08-04T10:04:46Z</time>
      </trkpt>
      <trkpt lat="47.68966" lon="-2.34252">
        <ele>51.57</ele>
        <time>2014-08-04T10:04:58Z</time>
      </trkpt>
      <trkpt lat="47.68973" lon="-2.3425">
        <ele>51.57</ele>
        <time>2014-08-04T10:05:15Z</time>
      </trkpt>
      <trkpt lat="47.68983" lon="-2.34246">
        <ele>51.09</ele>
        <time>2014-08-04T10:05:33Z</time>
      </trkpt>
      <trkpt lat="47.68986" lon="-2.34249">
        <ele>51.09</ele>
        <time>2014-08-04T10:05:47Z</time>
      </trkpt>
      <trkpt lat="47.68989" lon="-2.34246">
        <ele>51.09</ele>
        <time>2014-08-04T10:06:05Z</time>
      </trkpt>
      <trkpt lat="47.69004" lon="-2.3424">
        <ele>50.61</ele>
        <time>2014-08-04T10:06:19Z</time>
      </trkpt>
      <trkpt lat="47.69022" lon="-2.34233">
        <ele>49.65</ele>
        <time>2014-08-04T10:06:34Z</time>
      </trkpt>
      <trkpt lat="47.69024" lon="-2.34234">
        <ele>49.65</ele>
        <time>2014-08-04T10:06:36Z</time>
      </trkpt>
      <trkpt lat="47.69041" lon="-2.34223">
        <ele>48.68</ele>
        <time>2014-08-04T10:06:52Z</time>
      </trkpt>
      <trkpt lat="47.69058" lon="-2.34218">
        <ele>48.2</ele>
        <time>2014-08-04T10:07:07Z</time>
      </trkpt>
      <trkpt lat="47.69072" lon="-2.34212">
        <ele>46.28</ele>
        <time>2014-08-04T10:07:23Z</time>
      </trkpt>
      <trkpt lat="47.6908" lon="-2.3422">
        <ele>44.84</ele>
        <time>2014-08-04T10:07:33Z</time>
      </trkpt>
      <trkpt lat="47.69081" lon="-2.34225">
        <ele>44.36</ele>
        <time>2014-08-04T10:07:36Z</time>
      </trkpt>
      <trkpt lat="47.69074" lon="-2.3423">
        <ele>44.36</ele>
        <time>2014-08-04T10:07:48Z</time>
      </trkpt>
      <trkpt lat="47.69074" lon="-2.34226">
        <ele>44.36</ele>
        <time>2014-08-04T10:08:04Z</time>
      </trkpt>
      <trkpt lat="47.69073" lon="-2.34234">
        <ele>44.36</ele>
        <time>2014-08-04T10:08:08Z</time>
      </trkpt>
      <trkpt lat="47.69064" lon="-2.34267">
        <ele>43.4</ele>
        <time>2014-08-04T10:08:25Z</time>
      </trkpt>
      <trkpt lat="47.69061" lon="-2.34285">
        <ele>42.92</ele>
        <time>2014-08-04T10:08:38Z</time>
      </trkpt>
      <trkpt lat="47.69071" lon="-2.34305">
        <ele>42.44</ele>
        <time>2014-08-04T10:08:53Z</time>
      </trkpt>
      <trkpt lat="47.69071" lon="-2.34332">
        <ele>42.44</ele>
        <time>2014-08-04T10:09:08Z</time>
      </trkpt>
      <trkpt lat="47.69068" lon="-2.34357">
        <ele>42.44</ele>
        <time>2014-08-04T10:09:21Z</time>
      </trkpt>
      <trkpt lat="47.69067" lon="-2.34368">
        <ele>42.44</ele>
        <time>2014-08-04T10:09:28Z</time>
      </trkpt>
      <trkpt lat="47.69065" lon="-2.34385">
        <ele>42.44</ele>
        <time>2014-08-04T10:09:41Z</time>
      </trkpt>
      <trkpt lat="47.69065" lon="-2.34405">
        <ele>41.95</ele>
        <time>2014-08-04T10:09:57Z</time>
      </trkpt>
      <trkpt lat="47.69062" lon="-2.34435">
        <ele>42.44</ele>
        <time>2014-08-04T10:10:13Z</time>
      </trkpt>
      <trkpt lat="47.69059" lon="-2.3445">
        <ele>42.44</ele>
        <time>2014-08-04T10:10:27Z</time>
      </trkpt>
      <trkpt lat="47.69057" lon="-2.34469">
        <ele>42.44</ele>
        <time>2014-08-04T10:10:40Z</time>
      </trkpt>
      <trkpt lat="47.69054" lon="-2.34499">
        <ele>42.92</ele>
        <time>2014-08-04T10:10:58Z</time>
      </trkpt>
      <trkpt lat="47.69054" lon="-2.34526">
        <ele>42.92</ele>
        <time>2014-08-04T10:11:12Z</time>
      </trkpt>
      <trkpt lat="47.69055" lon="-2.34532">
        <ele>42.92</ele>
        <time>2014-08-04T10:11:16Z</time>
      </trkpt>
      <trkpt lat="47.69064" lon="-2.34555">
        <ele>42.44</ele>
        <time>2014-08-04T10:11:33Z</time>
      </trkpt>
      <trkpt lat="47.69075" lon="-2.34582">
        <ele>42.44</ele>
        <time>2014-08-04T10:11:49Z</time>
      </trkpt>
      <trkpt lat="47.69079" lon="-2.34612">
        <ele>42.44</ele>
        <time>2014-08-04T10:12:06Z</time>
      </trkpt>
      <trkpt lat="47.69079" lon="-2.3464">
        <ele>42.44</ele>
        <time>2014-08-04T10:12:22Z</time>
      </trkpt>
      <trkpt lat="47.69079" lon="-2.34669">
        <ele>42.44</ele>
        <time>2014-08-04T10:12:38Z</time>
      </trkpt>
      <trkpt lat="47.6908" lon="-2.34699">
        <ele>42.44</ele>
        <time>2014-08-04T10:12:55Z</time>
      </trkpt>
      <trkpt lat="47.69078" lon="-2.34729">
        <ele>42.44</ele>
        <time>2014-08-04T10:13:11Z</time>
      </trkpt>
      <trkpt lat="47.6908" lon="-2.34736">
        <ele>42.44</ele>
        <time>2014-08-04T10:13:28Z</time>
      </trkpt>
      <trkpt lat="47.69079" lon="-2.34745">
        <ele>41.95</ele>
        <time>2014-08-04T10:13:33Z</time>
      </trkpt>
      <trkpt lat="47.69078" lon="-2.34772">
        <ele>42.44</ele>
        <time>2014-08-04T10:13:47Z</time>
      </trkpt>
      <trkpt lat="47.69069" lon="-2.3479">
        <ele>42.44</ele>
        <time>2014-08-04T10:14:01Z</time>
      </trkpt>
      <trkpt lat="47.69056" lon="-2.34812">
        <ele>41.95</ele>
        <time>2014-08-04T10:14:15Z</time>
      </trkpt>
      <trkpt lat="47.69043" lon="-2.34831">
        <ele>42.44</ele>
        <time>2014-08-04T10:14:30Z</time>
      </trkpt>
      <trkpt lat="47.69031" lon="-2.34844">
        <ele>42.44</ele>
        <time>2014-08-04T10:14:44Z</time>
      </trkpt>
      <trkpt lat="47.6903" lon="-2.34847">
        <ele>42.44</ele>
        <time>2014-08-04T10:14:53Z</time>
      </trkpt>
      <trkpt lat="47.69023" lon="-2.34854">
        <ele>42.92</ele>
        <time>2014-08-04T10:14:59Z</time>
      </trkpt>
      <trkpt lat="47.69014" lon="-2.34864">
        <ele>42.92</ele>
        <time>2014-08-04T10:15:09Z</time>
      </trkpt>
      <trkpt lat="47.68998" lon="-2.34873">
        <ele>42.92</ele>
        <time>2014-08-04T10:15:24Z</time>
      </trkpt>
      <trkpt lat="47.68995" lon="-2.34875">
        <ele>42.92</ele>
        <time>2014-08-04T10:15:26Z</time>
      </trkpt>
      <trkpt lat="47.68977" lon="-2.34888">
        <ele>43.4</ele>
        <time>2014-08-04T10:15:41Z</time>
      </trkpt>
      <trkpt lat="47.68962" lon="-2.34892">
        <ele>42.44</ele>
        <time>2014-08-04T10:15:55Z</time>
      </trkpt>
      <trkpt lat="47.68937" lon="-2.34898">
        <ele>42.44</ele>
        <time>2014-08-04T10:16:13Z</time>
      </trkpt>
      <trkpt lat="47.68916" lon="-2.34904">
        <ele>42.44</ele>
        <time>2014-08-04T10:16:28Z</time>
      </trkpt>
      <trkpt lat="47.6891" lon="-2.34905">
        <ele>42.44</ele>
        <time>2014-08-04T10:16:33Z</time>
      </trkpt>
      <trkpt lat="47.68885" lon="-2.34917">
        <ele>41.95</ele>
        <time>2014-08-04T10:16:52Z</time>
      </trkpt>
      <trkpt lat="47.68866" lon="-2.34943">
        <ele>42.44</ele>
        <time>2014-08-04T10:17:12Z</time>
      </trkpt>
      <trkpt lat="47.68855" lon="-2.34963">
        <ele>42.44</ele>
        <time>2014-08-04T10:17:27Z</time>
      </trkpt>
      <trkpt lat="47.68849" lon="-2.34976">
        <ele>41.95</ele>
        <time>2014-08-04T10:17:35Z</time>
      </trkpt>
      <trkpt lat="47.68845" lon="-2.34993">
        <ele>41.95</ele>
        <time>2014-08-04T10:17:45Z</time>
      </trkpt>
      <trkpt lat="47.68845" lon="-2.35019">
        <ele>41.95</ele>
        <time>2014-08-04T10:17:56Z</time>
      </trkpt>
      <trkpt lat="47.6885" lon="-2.35033">
        <ele>41.95</ele>
        <time>2014-08-04T10:18:10Z</time>
      </trkpt>
      <trkpt lat="47.6885" lon="-2.35032">
        <ele>41.95</ele>
        <time>2014-08-04T10:18:14Z</time>
      </trkpt>
      <trkpt lat="47.68849" lon="-2.3505">
        <ele>41.95</ele>
        <time>2014-08-04T10:18:22Z</time>
      </trkpt>
      <trkpt lat="47.68851" lon="-2.35067">
        <ele>41.47</ele>
        <time>2014-08-04T10:18:30Z</time>
      </trkpt>
      <trkpt lat="47.68863" lon="-2.35096">
        <ele>41.47</ele>
        <time>2014-08-04T10:18:47Z</time>
      </trkpt>
      <trkpt lat="47.68887" lon="-2.35118">
        <ele>41.95</ele>
        <time>2014-08-04T10:19:08Z</time>
      </trkpt>
      <trkpt lat="47.68911" lon="-2.35136">
        <ele>41.95</ele>
        <time>2014-08-04T10:19:28Z</time>
      </trkpt>
      <trkpt lat="47.68933" lon="-2.35152">
        <ele>41.95</ele>
        <time>2014-08-04T10:19:47Z</time>
      </trkpt>
      <trkpt lat="47.68953" lon="-2.35164">
        <ele>41.95</ele>
        <time>2014-08-04T10:20:03Z</time>
      </trkpt>
      <trkpt lat="47.68977" lon="-2.35181">
        <ele>41.95</ele>
        <time>2014-08-04T10:20:24Z</time>
      </trkpt>
      <trkpt lat="47.68995" lon="-2.35206">
        <ele>41.95</ele>
        <time>2014-08-04T10:20:44Z</time>
      </trkpt>
      <trkpt lat="47.68996" lon="-2.35223">
        <ele>41.95</ele>
        <time>2014-08-04T10:20:52Z</time>
      </trkpt>
      <trkpt lat="47.68993" lon="-2.3526">
        <ele>41.95</ele>
        <time>2014-08-04T10:21:12Z</time>
      </trkpt>
      <trkpt lat="47.68993" lon="-2.353">
        <ele>41.95</ele>
        <time>2014-08-04T10:21:30Z</time>
      </trkpt>
      <trkpt lat="47.68993" lon="-2.35333">
        <ele>41.95</ele>
        <time>2014-08-04T10:21:49Z</time>
      </trkpt>
      <trkpt lat="47.68989" lon="-2.35377">
        <ele>41.95</ele>
        <time>2014-08-04T10:22:10Z</time>
      </trkpt>
      <trkpt lat="47.68986" lon="-2.35394">
        <ele>41.95</ele>
        <time>2014-08-04T10:22:18Z</time>
      </trkpt>
      <trkpt lat="47.68985" lon="-2.35401">
        <ele>41.95</ele>
        <time>2014-08-04T10:22:22Z</time>
      </trkpt>
      <trkpt lat="47.68976" lon="-2.35435">
        <ele>41.95</ele>
        <time>2014-08-04T10:22:41Z</time>
      </trkpt>
      <trkpt lat="47.68968" lon="-2.35473">
        <ele>41.95</ele>
        <time>2014-08-04T10:23:01Z</time>
      </trkpt>
      <trkpt lat="47.68956" lon="-2.35498">
        <ele>41.95</ele>
        <time>2014-08-04T10:23:17Z</time>
      </trkpt>
      <trkpt lat="47.68946" lon="-2.35523">
        <ele>41.95</ele>
        <time>2014-08-04T10:23:34Z</time>
      </trkpt>
      <trkpt lat="47.68945" lon="-2.35538">
        <ele>41.95</ele>
        <time>2014-08-04T10:23:42Z</time>
      </trkpt>
      <trkpt lat="47.6894" lon="-2.35545">
        <ele>41.47</ele>
        <time>2014-08-04T10:23:47Z</time>
      </trkpt>
      <trkpt lat="47.68935" lon="-2.35569">
        <ele>41.95</ele>
        <time>2014-08-04T10:24:01Z</time>
      </trkpt>
      <trkpt lat="47.68933" lon="-2.3558">
        <ele>41.47</ele>
        <time>2014-08-04T10:24:08Z</time>
      </trkpt>
      <trkpt lat="47.68929" lon="-2.35598">
        <ele>41.95</ele>
        <time>2014-08-04T10:24:18Z</time>
      </trkpt>
      <trkpt lat="47.68928" lon="-2.35603">
        <ele>41.47</ele>
        <time>2014-08-04T10:24:21Z</time>
      </trkpt>
      <trkpt lat="47.68927" lon="-2.35608">
        <ele>41.95</ele>
        <time>2014-08-04T10:24:24Z</time>
      </trkpt>
      <trkpt lat="47.68925" lon="-2.35635">
        <ele>41.95</ele>
        <time>2014-08-04T10:24:40Z</time>
      </trkpt>
      <trkpt lat="47.68931" lon="-2.35677">
        <ele>40.99</ele>
        <time>2014-08-04T10:25:00Z</time>
      </trkpt>
      <trkpt lat="47.68937" lon="-2.35719">
        <ele>40.99</ele>
        <time>2014-08-04T10:25:20Z</time>
      </trkpt>
      <trkpt lat="47.68939" lon="-2.35731">
        <ele>40.51</ele>
        <time>2014-08-04T10:25:33Z</time>
      </trkpt>
      <trkpt lat="47.68939" lon="-2.35754">
        <ele>40.51</ele>
        <time>2014-08-04T10:25:45Z</time>
      </trkpt>
      <trkpt lat="47.68936" lon="-2.35792">
        <ele>40.51</ele>
        <time>2014-08-04T10:26:03Z</time>
      </trkpt>
      <trkpt lat="47.68942" lon="-2.35812">
        <ele>40.99</ele>
        <time>2014-08-04T10:26:16Z</time>
      </trkpt>
      <trkpt lat="47.68946" lon="-2.35824">
        <ele>40.51</ele>
        <time>2014-08-04T10:26:24Z</time>
      </trkpt>
      <trkpt lat="47.6895" lon="-2.35835">
        <ele>40.51</ele>
        <time>2014-08-04T10:26:30Z</time>
      </trkpt>
      <trkpt lat="47.68951" lon="-2.3584">
        <ele>40.51</ele>
        <time>2014-08-04T10:26:35Z</time>
      </trkpt>
      <trkpt lat="47.68964" lon="-2.35857">
        <ele>40.51</ele>
        <time>2014-08-04T10:26:50Z</time>
      </trkpt>
      <trkpt lat="47.68975" lon="-2.35853">
        <ele>40.51</ele>
        <time>2014-08-04T10:27:00Z</time>
      </trkpt>
      <trkpt lat="47.68989" lon="-2.35867">
        <ele>40.51</ele>
        <time>2014-08-04T10:27:15Z</time>
      </trkpt>
      <trkpt lat="47.6899" lon="-2.35885">
        <ele>41.47</ele>
        <time>2014-08-04T10:27:38Z</time>
      </trkpt>
      <trkpt lat="47.68986" lon="-2.35912">
        <ele>40.99</ele>
        <time>2014-08-04T10:27:54Z</time>
      </trkpt>
      <trkpt lat="47.68984" lon="-2.35946">
        <ele>41.95</ele>
        <time>2014-08-04T10:28:13Z</time>
      </trkpt>
      <trkpt lat="47.68983" lon="-2.35976">
        <ele>41.95</ele>
        <time>2014-08-04T10:28:34Z</time>
      </trkpt>
      <trkpt lat="47.68981" lon="-2.35988">
        <ele>41.95</ele>
        <time>2014-08-04T10:28:40Z</time>
      </trkpt>
      <trkpt lat="47.68976" lon="-2.3601">
        <ele>42.92</ele>
        <time>2014-08-04T10:28:54Z</time>
      </trkpt>
      <trkpt lat="47.68972" lon="-2.36034">
        <ele>43.88</ele>
        <time>2014-08-04T10:29:08Z</time>
      </trkpt>
      <trkpt lat="47.68973" lon="-2.36059">
        <ele>44.84</ele>
        <time>2014-08-04T10:29:24Z</time>
      </trkpt>
      <trkpt lat="47.68975" lon="-2.36073">
        <ele>45.8</ele>
        <time>2014-08-04T10:29:33Z</time>
      </trkpt>
      <trkpt lat="47.68977" lon="-2.36096">
        <ele>47.24</ele>
        <time>2014-08-04T10:29:48Z</time>
      </trkpt>
      <trkpt lat="47.68992" lon="-2.36128">
        <ele>48.68</ele>
        <time>2014-08-04T10:30:05Z</time>
      </trkpt>
      <trkpt lat="47.68998" lon="-2.36148">
        <ele>48.68</ele>
        <time>2014-08-04T10:30:22Z</time>
      </trkpt>
      <trkpt lat="47.69" lon="-2.36158">
        <ele>48.68</ele>
        <time>2014-08-04T10:30:37Z</time>
      </trkpt>
      <trkpt lat="47.69003" lon="-2.36176">
        <ele>49.16</ele>
        <time>2014-08-04T10:30:52Z</time>
      </trkpt>
      <trkpt lat="47.69007" lon="-2.36204">
        <ele>48.2</ele>
        <time>2014-08-04T10:31:10Z</time>
      </trkpt>
      <trkpt lat="47.69008" lon="-2.36235">
        <ele>46.76</ele>
        <time>2014-08-04T10:31:29Z</time>
      </trkpt>
      <trkpt lat="47.69014" lon="-2.36266">
        <ele>46.28</ele>
        <time>2014-08-04T10:31:46Z</time>
      </trkpt>
      <trkpt lat="47.69015" lon="-2.36273">
        <ele>46.28</ele>
        <time>2014-08-04T10:31:49Z</time>
      </trkpt>
      <trkpt lat="47.69025" lon="-2.3632">
        <ele>46.76</ele>
        <time>2014-08-04T10:32:10Z</time>
      </trkpt>
      <trkpt lat="47.69021" lon="-2.36344">
        <ele>46.76</ele>
        <time>2014-08-04T10:32:28Z</time>
      </trkpt>
      <trkpt lat="47.69019" lon="-2.36376">
        <ele>46.76</ele>
        <time>2014-08-04T10:32:45Z</time>
      </trkpt>
      <trkpt lat="47.69026" lon="-2.36402">
        <ele>47.24</ele>
        <time>2014-08-04T10:32:58Z</time>
      </trkpt>
      <trkpt lat="47.6903" lon="-2.3643">
        <ele>47.72</ele>
        <time>2014-08-04T10:33:14Z</time>
      </trkpt>
      <trkpt lat="47.6903" lon="-2.36451">
        <ele>48.2</ele>
        <time>2014-08-04T10:33:27Z</time>
      </trkpt>
      <trkpt lat="47.69036" lon="-2.36474">
        <ele>48.2</ele>
        <time>2014-08-04T10:33:42Z</time>
      </trkpt>
      <trkpt lat="47.6905" lon="-2.36483">
        <ele>49.65</ele>
        <time>2014-08-04T10:33:55Z</time>
      </trkpt>
      <trkpt lat="47.69047" lon="-2.36474">
        <ele>50.13</ele>
        <time>2014-08-04T10:34:13Z</time>
      </trkpt>
      <trkpt lat="47.69051" lon="-2.3649">
        <ele>50.61</ele>
        <time>2014-08-04T10:34:27Z</time>
      </trkpt>
      <trkpt lat="47.69049" lon="-2.36516">
        <ele>51.09</ele>
        <time>2014-08-04T10:34:42Z</time>
      </trkpt>
      <trkpt lat="47.69051" lon="-2.36533">
        <ele>51.57</ele>
        <time>2014-08-04T10:34:53Z</time>
      </trkpt>
      <trkpt lat="47.69062" lon="-2.36555">
        <ele>51.57</ele>
        <time>2014-08-04T10:35:08Z</time>
      </trkpt>
      <trkpt lat="47.69074" lon="-2.36582">
        <ele>52.53</ele>
        <time>2014-08-04T10:35:24Z</time>
      </trkpt>
      <trkpt lat="47.69087" lon="-2.36611">
        <ele>53.01</ele>
        <time>2014-08-04T10:35:40Z</time>
      </trkpt>
      <trkpt lat="47.69097" lon="-2.36633">
        <ele>53.97</ele>
        <time>2014-08-04T10:35:55Z</time>
      </trkpt>
      <trkpt lat="47.69099" lon="-2.36632">
        <ele>54.45</ele>
        <time>2014-08-04T10:35:59Z</time>
      </trkpt>
      <trkpt lat="47.6911" lon="-2.36652">
        <ele>54.93</ele>
        <time>2014-08-04T10:36:14Z</time>
      </trkpt>
      <trkpt lat="47.69119" lon="-2.36677">
        <ele>54.45</ele>
        <time>2014-08-04T10:36:29Z</time>
      </trkpt>
      <trkpt lat="47.69126" lon="-2.36701">
        <ele>54.93</ele>
        <time>2014-08-04T10:36:44Z</time>
      </trkpt>
      <trkpt lat="47.69134" lon="-2.36728">
        <ele>53.97</ele>
        <time>2014-08-04T10:36:58Z</time>
      </trkpt>
      <trkpt lat="47.69139" lon="-2.36753">
        <ele>53.97</ele>
        <time>2014-08-04T10:37:12Z</time>
      </trkpt>
      <trkpt lat="47.69139" lon="-2.36755">
        <ele>53.49</ele>
        <time>2014-08-04T10:37:13Z</time>
      </trkpt>
      <trkpt lat="47.69145" lon="-2.36775">
        <ele>53.49</ele>
        <time>2014-08-04T10:37:24Z</time>
      </trkpt>
      <trkpt lat="47.69148" lon="-2.36786">
        <ele>53.49</ele>
        <time>2014-08-04T10:37:30Z</time>
      </trkpt>
      <trkpt lat="47.69157" lon="-2.36806">
        <ele>53.01</ele>
        <time>2014-08-04T10:37:43Z</time>
      </trkpt>
      <trkpt lat="47.69166" lon="-2.3682">
        <ele>53.49</ele>
        <time>2014-08-04T10:37:54Z</time>
      </trkpt>
      <trkpt lat="47.69179" lon="-2.36842">
        <ele>53.01</ele>
        <time>2014-08-04T10:38:09Z</time>
      </trkpt>
      <trkpt lat="47.69179" lon="-2.36843">
        <ele>53.01</ele>
        <time>2014-08-04T10:38:10Z</time>
      </trkpt>
      <trkpt lat="47.69189" lon="-2.3686">
        <ele>52.05</ele>
        <time>2014-08-04T10:38:23Z</time>
      </trkpt>
      <trkpt lat="47.69199" lon="-2.36877">
        <ele>50.61</ele>
        <time>2014-08-04T10:38:37Z</time>
      </trkpt>
      <trkpt lat="47.69217" lon="-2.36891">
        <ele>49.65</ele>
        <time>2014-08-04T10:38:52Z</time>
      </trkpt>
      <trkpt lat="47.69233" lon="-2.36894">
        <ele>48.68</ele>
        <time>2014-08-04T10:39:07Z</time>
      </trkpt>
      <trkpt lat="47.69255" lon="-2.36901">
        <ele>49.16</ele>
        <time>2014-08-04T10:39:21Z</time>
      </trkpt>
      <trkpt lat="47.69264" lon="-2.369">
        <ele>49.16</ele>
        <time>2014-08-04T10:39:27Z</time>
      </trkpt>
      <trkpt lat="47.69274" lon="-2.36871">
        <ele>50.13</ele>
        <time>2014-08-04T10:39:42Z</time>
      </trkpt>
      <trkpt lat="47.69277" lon="-2.36862">
        <ele>50.61</ele>
        <time>2014-08-04T10:39:47Z</time>
      </trkpt>
      <trkpt lat="47.69283" lon="-2.36842">
        <ele>53.01</ele>
        <time>2014-08-04T10:40:02Z</time>
      </trkpt>
      <trkpt lat="47.69284" lon="-2.3684">
        <ele>53.49</ele>
        <time>2014-08-04T10:40:03Z</time>
      </trkpt>
      <trkpt lat="47.69291" lon="-2.36824">
        <ele>55.41</ele>
        <time>2014-08-04T10:40:15Z</time>
      </trkpt>
      <trkpt lat="47.69295" lon="-2.3682">
        <ele>55.89</ele>
        <time>2014-08-04T10:40:20Z</time>
      </trkpt>
      <trkpt lat="47.693" lon="-2.36801">
        <ele>57.82</ele>
        <time>2014-08-04T10:40:33Z</time>
      </trkpt>
      <trkpt lat="47.69301" lon="-2.36797">
        <ele>57.82</ele>
        <time>2014-08-04T10:40:35Z</time>
      </trkpt>
      <trkpt lat="47.69303" lon="-2.36788">
        <ele>58.78</ele>
        <time>2014-08-04T10:40:41Z</time>
      </trkpt>
      <trkpt lat="47.69305" lon="-2.36781">
        <ele>58.78</ele>
        <time>2014-08-04T10:40:45Z</time>
      </trkpt>
      <trkpt lat="47.6931" lon="-2.36769">
        <ele>59.74</ele>
        <time>2014-08-04T10:40:52Z</time>
      </trkpt>
      <trkpt lat="47.69319" lon="-2.36745">
        <ele>61.18</ele>
        <time>2014-08-04T10:41:06Z</time>
      </trkpt>
      <trkpt lat="47.69324" lon="-2.36731">
        <ele>61.66</ele>
        <time>2014-08-04T10:41:14Z</time>
      </trkpt>
      <trkpt lat="47.69327" lon="-2.36721">
        <ele>62.14</ele>
        <time>2014-08-04T10:41:20Z</time>
      </trkpt>
      <trkpt lat="47.69332" lon="-2.3671">
        <ele>62.62</ele>
        <time>2014-08-04T10:41:27Z</time>
      </trkpt>
      <trkpt lat="47.69344" lon="-2.36684">
        <ele>63.58</ele>
        <time>2014-08-04T10:41:43Z</time>
      </trkpt>
      <trkpt lat="47.69356" lon="-2.36671">
        <ele>64.07</ele>
        <time>2014-08-04T10:41:56Z</time>
      </trkpt>
      <trkpt lat="47.69358" lon="-2.36668">
        <ele>64.07</ele>
        <time>2014-08-04T10:41:58Z</time>
      </trkpt>
      <trkpt lat="47.69375" lon="-2.36657">
        <ele>64.55</ele>
        <time>2014-08-04T10:42:13Z</time>
      </trkpt>
      <trkpt lat="47.69376" lon="-2.36655">
        <ele>64.07</ele>
        <time>2014-08-04T10:42:14Z</time>
      </trkpt>
      <trkpt lat="47.69375" lon="-2.36651">
        <ele>64.55</ele>
        <time>2014-08-04T10:42:17Z</time>
      </trkpt>
      <trkpt lat="47.69364" lon="-2.36626">
        <ele>66.47</ele>
        <time>2014-08-04T10:42:37Z</time>
      </trkpt>
      <trkpt lat="47.69357" lon="-2.36598">
        <ele>68.87</ele>
        <time>2014-08-04T10:42:55Z</time>
      </trkpt>
      <trkpt lat="47.6935" lon="-2.3657">
        <ele>71.27</ele>
        <time>2014-08-04T10:43:12Z</time>
      </trkpt>
      <trkpt lat="47.69337" lon="-2.3655">
        <ele>73.2</ele>
        <time>2014-08-04T10:43:27Z</time>
      </trkpt>
      <trkpt lat="47.69336" lon="-2.3654">
        <ele>73.2</ele>
        <time>2014-08-04T10:43:32Z</time>
      </trkpt>
      <trkpt lat="47.69334" lon="-2.36513">
        <ele>74.16</ele>
        <time>2014-08-04T10:43:48Z</time>
      </trkpt>
      <trkpt lat="47.69334" lon="-2.36482">
        <ele>74.64</ele>
        <time>2014-08-04T10:44:05Z</time>
      </trkpt>
      <trkpt lat="47.69359" lon="-2.36468">
        <ele>73.2</ele>
        <time>2014-08-04T10:44:24Z</time>
      </trkpt>
      <trkpt lat="47.69373" lon="-2.36467">
        <ele>71.76</ele>
        <time>2014-08-04T10:44:38Z</time>
      </trkpt>
      <trkpt lat="47.69402" lon="-2.36457">
        <ele>70.79</ele>
        <time>2014-08-04T10:45:00Z</time>
      </trkpt>
      <trkpt lat="47.6943" lon="-2.36443">
        <ele>69.83</ele>
        <time>2014-08-04T10:45:24Z</time>
      </trkpt>
      <trkpt lat="47.69457" lon="-2.36435">
        <ele>69.35</ele>
        <time>2014-08-04T10:45:46Z</time>
      </trkpt>
      <trkpt lat="47.69466" lon="-2.36431">
        <ele>68.87</ele>
        <time>2014-08-04T10:45:54Z</time>
      </trkpt>
      <trkpt lat="47.69482" lon="-2.36419">
        <ele>68.39</ele>
        <time>2014-08-04T10:46:09Z</time>
      </trkpt>
      <trkpt lat="47.69503" lon="-2.36408">
        <ele>68.39</ele>
        <time>2014-08-04T10:46:26Z</time>
      </trkpt>
      <trkpt lat="47.69522" lon="-2.36398">
        <ele>68.39</ele>
        <time>2014-08-04T10:46:43Z</time>
      </trkpt>
      <trkpt lat="47.69534" lon="-2.36395">
        <ele>68.39</ele>
        <time>2014-08-04T10:46:53Z</time>
      </trkpt>
      <trkpt lat="47.69556" lon="-2.36384">
        <ele>68.87</ele>
        <time>2014-08-04T10:47:12Z</time>
      </trkpt>
      <trkpt lat="47.69568" lon="-2.36377">
        <ele>68.87</ele>
        <time>2014-08-04T10:47:23Z</time>
      </trkpt>
      <trkpt lat="47.69579" lon="-2.36371">
        <ele>68.87</ele>
        <time>2014-08-04T10:47:34Z</time>
      </trkpt>
      <trkpt lat="47.69596" lon="-2.36374">
        <ele>68.87</ele>
        <time>2014-08-04T10:47:50Z</time>
      </trkpt>
      <trkpt lat="47.69603" lon="-2.36371">
        <ele>68.87</ele>
        <time>2014-08-04T10:47:58Z</time>
      </trkpt>
      <trkpt lat="47.6962" lon="-2.36382">
        <ele>68.87</ele>
        <time>2014-08-04T10:48:11Z</time>
      </trkpt>
      <trkpt lat="47.69629" lon="-2.36375">
        <ele>68.39</ele>
        <time>2014-08-04T10:48:26Z</time>
      </trkpt>
      <trkpt lat="47.69638" lon="-2.36348">
        <ele>66.47</ele>
        <time>2014-08-04T11:11:58Z</time>
      </trkpt>
      <trkpt lat="47.69638" lon="-2.36348">
        <ele>66.47</ele>
        <time>2014-08-04T11:14:41Z</time>
      </trkpt>
      <trkpt lat="47.69637" lon="-2.36375">
        <ele>67.43</ele>
        <time>2014-08-04T11:16:18Z</time>
      </trkpt>
      <trkpt lat="47.69636" lon="-2.36379">
        <ele>67.43</ele>
        <time>2014-08-04T11:16:21Z</time>
      </trkpt>
      <trkpt lat="47.69643" lon="-2.36407">
        <ele>66.95</ele>
        <time>2014-08-04T11:16:34Z</time>
      </trkpt>
      <trkpt lat="47.69661" lon="-2.36427">
        <ele>66.95</ele>
        <time>2014-08-04T11:16:55Z</time>
      </trkpt>
      <trkpt lat="47.69684" lon="-2.36437">
        <ele>66.95</ele>
        <time>2014-08-04T11:17:14Z</time>
      </trkpt>
      <trkpt lat="47.69689" lon="-2.3645">
        <ele>66.95</ele>
        <time>2014-08-04T11:17:31Z</time>
      </trkpt>
      <trkpt lat="47.69748" lon="-2.36446">
        <ele>68.39</ele>
        <time>2014-08-04T11:47:55Z</time>
      </trkpt>
      <trkpt lat="47.69678" lon="-2.3644">
        <ele>68.87</ele>
        <time>2014-08-04T11:48:07Z</time>
      </trkpt>
      <trkpt lat="47.69667" lon="-2.36431">
        <ele>68.87</ele>
        <time>2014-08-04T11:48:21Z</time>
      </trkpt>
      <trkpt lat="47.69652" lon="-2.36424">
        <ele>68.87</ele>
        <time>2014-08-04T11:48:37Z</time>
      </trkpt>
      <trkpt lat="47.69628" lon="-2.36415">
        <ele>68.87</ele>
        <time>2014-08-04T11:48:55Z</time>
      </trkpt>
      <trkpt lat="47.69614" lon="-2.36409">
        <ele>69.35</ele>
        <time>2014-08-04T11:49:09Z</time>
      </trkpt>
      <trkpt lat="47.69609" lon="-2.36413">
        <ele>69.35</ele>
        <time>2014-08-04T11:49:23Z</time>
      </trkpt>
      <trkpt lat="47.69608" lon="-2.36414">
        <ele>68.87</ele>
        <time>2014-08-04T11:49:24Z</time>
      </trkpt>
      <trkpt lat="47.6961" lon="-2.36424">
        <ele>68.87</ele>
        <time>2014-08-04T11:49:35Z</time>
      </trkpt>
      <trkpt lat="47.69618" lon="-2.36429">
        <ele>68.87</ele>
        <time>2014-08-04T11:49:49Z</time>
      </trkpt>
      <trkpt lat="47.69622" lon="-2.36436">
        <ele>68.39</ele>
        <time>2014-08-04T11:50:02Z</time>
      </trkpt>
      <trkpt lat="47.69623" lon="-2.3647">
        <ele>67.91</ele>
        <time>2014-08-04T11:50:21Z</time>
      </trkpt>
      <trkpt lat="47.69622" lon="-2.36471">
        <ele>67.91</ele>
        <time>2014-08-04T11:50:22Z</time>
      </trkpt>
      <trkpt lat="47.69617" lon="-2.36484">
        <ele>67.91</ele>
        <time>2014-08-04T11:50:31Z</time>
      </trkpt>
      <trkpt lat="47.6961" lon="-2.36499">
        <ele>67.91</ele>
        <time>2014-08-04T11:50:47Z</time>
      </trkpt>
      <trkpt lat="47.6962" lon="-2.36513">
        <ele>67.43</ele>
        <time>2014-08-04T11:50:55Z</time>
      </trkpt>
      <trkpt lat="47.69657" lon="-2.36549">
        <ele>67.91</ele>
        <time>2014-08-04T11:51:13Z</time>
      </trkpt>
      <trkpt lat="47.69672" lon="-2.36578">
        <ele>68.39</ele>
        <time>2014-08-04T11:51:29Z</time>
      </trkpt>
      <trkpt lat="47.69683" lon="-2.36605">
        <ele>68.39</ele>
        <time>2014-08-04T11:51:46Z</time>
      </trkpt>
      <trkpt lat="47.69689" lon="-2.36634">
        <ele>67.91</ele>
        <time>2014-08-04T11:52:03Z</time>
      </trkpt>
      <trkpt lat="47.69699" lon="-2.36661">
        <ele>67.91</ele>
        <time>2014-08-04T11:52:20Z</time>
      </trkpt>
      <trkpt lat="47.69703" lon="-2.36679">
        <ele>67.43</ele>
        <time>2014-08-04T11:52:29Z</time>
      </trkpt>
      <trkpt lat="47.69702" lon="-2.36709">
        <ele>67.91</ele>
        <time>2014-08-04T11:52:46Z</time>
      </trkpt>
      <trkpt lat="47.69699" lon="-2.36746">
        <ele>68.39</ele>
        <time>2014-08-04T11:53:05Z</time>
      </trkpt>
      <trkpt lat="47.69697" lon="-2.3675">
        <ele>68.39</ele>
        <time>2014-08-04T11:53:08Z</time>
      </trkpt>
      <trkpt lat="47.69694" lon="-2.36764">
        <ele>68.39</ele>
        <time>2014-08-04T11:53:20Z</time>
      </trkpt>
      <trkpt lat="47.69693" lon="-2.36791">
        <ele>68.39</ele>
        <time>2014-08-04T11:53:35Z</time>
      </trkpt>
      <trkpt lat="47.69693" lon="-2.36827">
        <ele>67.91</ele>
        <time>2014-08-04T11:53:56Z</time>
      </trkpt>
      <trkpt lat="47.69695" lon="-2.36838">
        <ele>67.43</ele>
        <time>2014-08-04T11:54:02Z</time>
      </trkpt>
      <trkpt lat="47.69695" lon="-2.36872">
        <ele>66.47</ele>
        <time>2014-08-04T11:54:21Z</time>
      </trkpt>
      <trkpt lat="47.69698" lon="-2.36907">
        <ele>65.51</ele>
        <time>2014-08-04T11:54:40Z</time>
      </trkpt>
      <trkpt lat="47.69701" lon="-2.36935">
        <ele>65.51</ele>
        <time>2014-08-04T11:54:57Z</time>
      </trkpt>
      <trkpt lat="47.69702" lon="-2.36956">
        <ele>65.03</ele>
        <time>2014-08-04T11:55:13Z</time>
      </trkpt>
      <trkpt lat="47.69702" lon="-2.36959">
        <ele>65.03</ele>
        <time>2014-08-04T11:55:15Z</time>
      </trkpt>
      <trkpt lat="47.69702" lon="-2.36965">
        <ele>65.03</ele>
        <time>2014-08-04T11:55:21Z</time>
      </trkpt>
      <trkpt lat="47.69709" lon="-2.36992">
        <ele>65.51</ele>
        <time>2014-08-04T11:55:39Z</time>
      </trkpt>
      <trkpt lat="47.69711" lon="-2.3702">
        <ele>65.99</ele>
        <time>2014-08-04T11:55:58Z</time>
      </trkpt>
      <trkpt lat="47.69715" lon="-2.3705">
        <ele>66.47</ele>
        <time>2014-08-04T11:56:14Z</time>
      </trkpt>
      <trkpt lat="47.69716" lon="-2.3706">
        <ele>66.47</ele>
        <time>2014-08-04T11:56:20Z</time>
      </trkpt>
      <trkpt lat="47.6972" lon="-2.37091">
        <ele>66.47</ele>
        <time>2014-08-04T11:56:37Z</time>
      </trkpt>
      <trkpt lat="47.69724" lon="-2.37124">
        <ele>66.95</ele>
        <time>2014-08-04T11:56:54Z</time>
      </trkpt>
      <trkpt lat="47.69728" lon="-2.37159">
        <ele>65.51</ele>
        <time>2014-08-04T11:57:11Z</time>
      </trkpt>
      <trkpt lat="47.6973" lon="-2.3719">
        <ele>65.03</ele>
        <time>2014-08-04T11:57:26Z</time>
      </trkpt>
      <trkpt lat="47.69727" lon="-2.37229">
        <ele>64.55</ele>
        <time>2014-08-04T11:57:45Z</time>
      </trkpt>
      <trkpt lat="47.69724" lon="-2.37244">
        <ele>64.55</ele>
        <time>2014-08-04T11:57:56Z</time>
      </trkpt>
      <trkpt lat="47.69722" lon="-2.37257">
        <ele>64.55</ele>
        <time>2014-08-04T11:58:04Z</time>
      </trkpt>
      <trkpt lat="47.69721" lon="-2.37287">
        <ele>63.58</ele>
        <time>2014-08-04T11:58:20Z</time>
      </trkpt>
      <trkpt lat="47.69721" lon="-2.373">
        <ele>63.58</ele>
        <time>2014-08-04T11:58:33Z</time>
      </trkpt>
      <trkpt lat="47.69719" lon="-2.37312">
        <ele>63.58</ele>
        <time>2014-08-04T11:59:01Z</time>
      </trkpt>
      <trkpt lat="47.69723" lon="-2.37339">
        <ele>63.1</ele>
        <time>2014-08-04T11:59:17Z</time>
      </trkpt>
      <trkpt lat="47.69726" lon="-2.37366">
        <ele>62.62</ele>
        <time>2014-08-04T11:59:31Z</time>
      </trkpt>
      <trkpt lat="47.6973" lon="-2.37386">
        <ele>62.14</ele>
        <time>2014-08-04T11:59:44Z</time>
      </trkpt>
      <trkpt lat="47.69734" lon="-2.37407">
        <ele>61.66</ele>
        <time>2014-08-04T11:59:59Z</time>
      </trkpt>
      <trkpt lat="47.69739" lon="-2.37423">
        <ele>62.14</ele>
        <time>2014-08-04T12:00:14Z</time>
      </trkpt>
      <trkpt lat="47.69746" lon="-2.37442">
        <ele>61.66</ele>
        <time>2014-08-04T12:00:35Z</time>
      </trkpt>
      <trkpt lat="47.69749" lon="-2.3746">
        <ele>61.18</ele>
        <time>2014-08-04T12:00:50Z</time>
      </trkpt>
      <trkpt lat="47.69746" lon="-2.3748">
        <ele>60.7</ele>
        <time>2014-08-04T12:01:10Z</time>
      </trkpt>
      <trkpt lat="47.69748" lon="-2.37478">
        <ele>61.66</ele>
        <time>2014-08-04T12:01:42Z</time>
      </trkpt>
      <trkpt lat="47.69744" lon="-2.37471">
        <ele>61.66</ele>
        <time>2014-08-04T12:02:08Z</time>
      </trkpt>
      <trkpt lat="47.69744" lon="-2.37474">
        <ele>61.66</ele>
        <time>2014-08-04T12:02:35Z</time>
      </trkpt>
      <trkpt lat="47.69745" lon="-2.37481">
        <ele>62.14</ele>
        <time>2014-08-04T12:02:58Z</time>
      </trkpt>
      <trkpt lat="47.69748" lon="-2.37487">
        <ele>62.14</ele>
        <time>2014-08-04T12:03:18Z</time>
      </trkpt>
      <trkpt lat="47.69752" lon="-2.37503">
        <ele>62.14</ele>
        <time>2014-08-04T12:03:35Z</time>
      </trkpt>
      <trkpt lat="47.69762" lon="-2.37535">
        <ele>62.62</ele>
        <time>2014-08-04T12:03:53Z</time>
      </trkpt>
      <trkpt lat="47.69768" lon="-2.37562">
        <ele>63.58</ele>
        <time>2014-08-04T12:04:09Z</time>
      </trkpt>
      <trkpt lat="47.69774" lon="-2.37596">
        <ele>64.07</ele>
        <time>2014-08-04T12:04:26Z</time>
      </trkpt>
      <trkpt lat="47.69774" lon="-2.37629">
        <ele>64.55</ele>
        <time>2014-08-04T12:04:44Z</time>
      </trkpt>
      <trkpt lat="47.69778" lon="-2.37656">
        <ele>65.51</ele>
        <time>2014-08-04T12:04:58Z</time>
      </trkpt>
      <trkpt lat="47.69783" lon="-2.37684">
        <ele>66.47</ele>
        <time>2014-08-04T12:05:15Z</time>
      </trkpt>
      <trkpt lat="47.69783" lon="-2.37687">
        <ele>66.47</ele>
        <time>2014-08-04T12:05:16Z</time>
      </trkpt>
      <trkpt lat="47.69791" lon="-2.37721">
        <ele>65.99</ele>
        <time>2014-08-04T12:05:34Z</time>
      </trkpt>
      <trkpt lat="47.69801" lon="-2.37753">
        <ele>66.95</ele>
        <time>2014-08-04T12:05:53Z</time>
      </trkpt>
      <trkpt lat="47.69802" lon="-2.37776">
        <ele>66.95</ele>
        <time>2014-08-04T12:06:06Z</time>
      </trkpt>
      <trkpt lat="47.69802" lon="-2.37815">
        <ele>65.99</ele>
        <time>2014-08-04T12:06:26Z</time>
      </trkpt>
      <trkpt lat="47.69797" lon="-2.37855">
        <ele>66.47</ele>
        <time>2014-08-04T12:06:47Z</time>
      </trkpt>
      <trkpt lat="47.69795" lon="-2.37892">
        <ele>67.43</ele>
        <time>2014-08-04T12:07:08Z</time>
      </trkpt>
      <trkpt lat="47.69799" lon="-2.37918">
        <ele>67.91</ele>
        <time>2014-08-04T12:07:19Z</time>
      </trkpt>
      <trkpt lat="47.69805" lon="-2.37934">
        <ele>68.39</ele>
        <time>2014-08-04T12:07:25Z</time>
      </trkpt>
      <trkpt lat="47.69819" lon="-2.37961">
        <ele>70.31</ele>
        <time>2014-08-04T12:07:44Z</time>
      </trkpt>
      <trkpt lat="47.69834" lon="-2.37975">
        <ele>71.76</ele>
        <time>2014-08-04T12:08:01Z</time>
      </trkpt>
      <trkpt lat="47.69859" lon="-2.38007">
        <ele>73.2</ele>
        <time>2014-08-04T12:08:24Z</time>
      </trkpt>
      <trkpt lat="47.6986" lon="-2.38031">
        <ele>73.2</ele>
        <time>2014-08-04T12:08:39Z</time>
      </trkpt>
      <trkpt lat="47.69861" lon="-2.38041">
        <ele>73.2</ele>
        <time>2014-08-04T12:08:47Z</time>
      </trkpt>
      <trkpt lat="47.69867" lon="-2.38048">
        <ele>73.2</ele>
        <time>2014-08-04T12:08:53Z</time>
      </trkpt>
      <trkpt lat="47.69885" lon="-2.38053">
        <ele>73.2</ele>
        <time>2014-08-04T12:09:09Z</time>
      </trkpt>
      <trkpt lat="47.6991" lon="-2.38058">
        <ele>72.72</ele>
        <time>2014-08-04T12:09:28Z</time>
      </trkpt>
      <trkpt lat="47.69936" lon="-2.38067">
        <ele>73.2</ele>
        <time>2014-08-04T12:09:47Z</time>
      </trkpt>
      <trkpt lat="47.69961" lon="-2.38084">
        <ele>72.72</ele>
        <time>2014-08-04T12:10:08Z</time>
      </trkpt>
      <trkpt lat="47.6998" lon="-2.38113">
        <ele>72.72</ele>
        <time>2014-08-04T12:10:28Z</time>
      </trkpt>
      <trkpt lat="47.69983" lon="-2.38115">
        <ele>72.72</ele>
        <time>2014-08-04T12:10:31Z</time>
      </trkpt>
      <trkpt lat="47.70004" lon="-2.38113">
        <ele>72.24</ele>
        <time>2014-08-04T12:10:52Z</time>
      </trkpt>
      <trkpt lat="47.70024" lon="-2.3811">
        <ele>71.76</ele>
        <time>2014-08-04T12:11:08Z</time>
      </trkpt>
      <trkpt lat="47.70044" lon="-2.38108">
        <ele>70.79</ele>
        <time>2014-08-04T12:11:26Z</time>
      </trkpt>
      <trkpt lat="47.70064" lon="-2.38104">
        <ele>70.31</ele>
        <time>2014-08-04T12:11:41Z</time>
      </trkpt>
      <trkpt lat="47.70088" lon="-2.38101">
        <ele>69.35</ele>
        <time>2014-08-04T12:11:59Z</time>
      </trkpt>
      <trkpt lat="47.70113" lon="-2.38098">
        <ele>68.39</ele>
        <time>2014-08-04T12:12:19Z</time>
      </trkpt>
      <trkpt lat="47.7014" lon="-2.3809">
        <ele>67.43</ele>
        <time>2014-08-04T12:12:40Z</time>
      </trkpt>
      <trkpt lat="47.7017" lon="-2.38086">
        <ele>65.99</ele>
        <time>2014-08-04T12:12:59Z</time>
      </trkpt>
      <trkpt lat="47.70195" lon="-2.3808">
        <ele>64.55</ele>
        <time>2014-08-04T12:13:18Z</time>
      </trkpt>
      <trkpt lat="47.70207" lon="-2.38092">
        <ele>64.07</ele>
        <time>2014-08-04T12:13:30Z</time>
      </trkpt>
      <trkpt lat="47.70215" lon="-2.38125">
        <ele>64.07</ele>
        <time>2014-08-04T12:13:48Z</time>
      </trkpt>
      <trkpt lat="47.70219" lon="-2.38143">
        <ele>63.1</ele>
        <time>2014-08-04T12:14:01Z</time>
      </trkpt>
      <trkpt lat="47.70224" lon="-2.38161">
        <ele>63.58</ele>
        <time>2014-08-04T12:14:14Z</time>
      </trkpt>
      <trkpt lat="47.70232" lon="-2.38198">
        <ele>62.62</ele>
        <time>2014-08-04T12:14:33Z</time>
      </trkpt>
      <trkpt lat="47.70233" lon="-2.38204">
        <ele>62.14</ele>
        <time>2014-08-04T12:14:44Z</time>
      </trkpt>
      <trkpt lat="47.70235" lon="-2.38208">
        <ele>62.62</ele>
        <time>2014-08-04T12:14:47Z</time>
      </trkpt>
      <trkpt lat="47.70243" lon="-2.38242">
        <ele>62.14</ele>
        <time>2014-08-04T12:15:06Z</time>
      </trkpt>
      <trkpt lat="47.70253" lon="-2.38277">
        <ele>62.14</ele>
        <time>2014-08-04T12:15:29Z</time>
      </trkpt>
      <trkpt lat="47.70262" lon="-2.38306">
        <ele>61.18</ele>
        <time>2014-08-04T12:15:45Z</time>
      </trkpt>
      <trkpt lat="47.70271" lon="-2.38338">
        <ele>61.66</ele>
        <time>2014-08-04T12:16:02Z</time>
      </trkpt>
      <trkpt lat="47.70281" lon="-2.3838">
        <ele>61.66</ele>
        <time>2014-08-04T12:16:22Z</time>
      </trkpt>
      <trkpt lat="47.70293" lon="-2.38419">
        <ele>62.14</ele>
        <time>2014-08-04T12:16:45Z</time>
      </trkpt>
      <trkpt lat="47.70304" lon="-2.38447">
        <ele>62.62</ele>
        <time>2014-08-04T12:17:02Z</time>
      </trkpt>
      <trkpt lat="47.70311" lon="-2.38471">
        <ele>62.62</ele>
        <time>2014-08-04T12:17:16Z</time>
      </trkpt>
      <trkpt lat="47.70319" lon="-2.38506">
        <ele>64.07</ele>
        <time>2014-08-04T12:17:37Z</time>
      </trkpt>
      <trkpt lat="47.70331" lon="-2.3854">
        <ele>65.51</ele>
        <time>2014-08-04T12:17:58Z</time>
      </trkpt>
      <trkpt lat="47.70346" lon="-2.38578">
        <ele>67.43</ele>
        <time>2014-08-04T12:18:20Z</time>
      </trkpt>
      <trkpt lat="47.70354" lon="-2.3861">
        <ele>69.35</ele>
        <time>2014-08-04T12:18:38Z</time>
      </trkpt>
      <trkpt lat="47.70366" lon="-2.38657">
        <ele>70.79</ele>
        <time>2014-08-04T12:19:00Z</time>
      </trkpt>
      <trkpt lat="47.70378" lon="-2.38689">
        <ele>73.2</ele>
        <time>2014-08-04T12:19:21Z</time>
      </trkpt>
      <trkpt lat="47.70388" lon="-2.38728">
        <ele>75.12</ele>
        <time>2014-08-04T12:19:42Z</time>
      </trkpt>
      <trkpt lat="47.70394" lon="-2.38745">
        <ele>76.08</ele>
        <time>2014-08-04T12:19:52Z</time>
      </trkpt>
      <trkpt lat="47.70414" lon="-2.38738">
        <ele>77.52</ele>
        <time>2014-08-04T12:20:12Z</time>
      </trkpt>
      <trkpt lat="47.70431" lon="-2.38732">
        <ele>78</ele>
        <time>2014-08-04T12:20:28Z</time>
      </trkpt>
      <trkpt lat="47.70451" lon="-2.38723">
        <ele>78.48</ele>
        <time>2014-08-04T12:20:42Z</time>
      </trkpt>
      <trkpt lat="47.70453" lon="-2.38722">
        <ele>78.97</ele>
        <time>2014-08-04T12:20:44Z</time>
      </trkpt>
      <trkpt lat="47.70474" lon="-2.38718">
        <ele>78.48</ele>
        <time>2014-08-04T12:20:59Z</time>
      </trkpt>
      <trkpt lat="47.70493" lon="-2.38715">
        <ele>79.93</ele>
        <time>2014-08-04T12:21:19Z</time>
      </trkpt>
      <trkpt lat="47.70513" lon="-2.38709">
        <ele>80.89</ele>
        <time>2014-08-04T12:21:38Z</time>
      </trkpt>
      <trkpt lat="47.70534" lon="-2.38701">
        <ele>80.89</ele>
        <time>2014-08-04T12:21:55Z</time>
      </trkpt>
      <trkpt lat="47.70551" lon="-2.38681">
        <ele>79.93</ele>
        <time>2014-08-04T12:22:12Z</time>
      </trkpt>
      <trkpt lat="47.70567" lon="-2.38664">
        <ele>78.97</ele>
        <time>2014-08-04T12:22:27Z</time>
      </trkpt>
      <trkpt lat="47.70577" lon="-2.38656">
        <ele>78.48</ele>
        <time>2014-08-04T12:22:51Z</time>
      </trkpt>
      <trkpt lat="47.70589" lon="-2.38649">
        <ele>78.48</ele>
        <time>2014-08-04T12:23:10Z</time>
      </trkpt>
      <trkpt lat="47.70593" lon="-2.38641">
        <ele>78.48</ele>
        <time>2014-08-04T12:23:16Z</time>
      </trkpt>
      <trkpt lat="47.70608" lon="-2.38607">
        <ele>77.52</ele>
        <time>2014-08-04T12:23:36Z</time>
      </trkpt>
      <trkpt lat="47.70615" lon="-2.38582">
        <ele>76.56</ele>
        <time>2014-08-04T12:23:52Z</time>
      </trkpt>
      <trkpt lat="47.70627" lon="-2.38561">
        <ele>76.56</ele>
        <time>2014-08-04T12:24:11Z</time>
      </trkpt>
      <trkpt lat="47.70635" lon="-2.38544">
        <ele>76.08</ele>
        <time>2014-08-04T12:24:21Z</time>
      </trkpt>
      <trkpt lat="47.70651" lon="-2.38518">
        <ele>75.6</ele>
        <time>2014-08-04T12:24:39Z</time>
      </trkpt>
      <trkpt lat="47.70654" lon="-2.38501">
        <ele>75.6</ele>
        <time>2014-08-04T12:24:52Z</time>
      </trkpt>
      <trkpt lat="47.70664" lon="-2.38472">
        <ele>75.6</ele>
        <time>2014-08-04T12:25:10Z</time>
      </trkpt>
      <trkpt lat="47.70669" lon="-2.38447">
        <ele>75.6</ele>
        <time>2014-08-04T12:25:25Z</time>
      </trkpt>
      <trkpt lat="47.70668" lon="-2.38435">
        <ele>75.6</ele>
        <time>2014-08-04T12:25:40Z</time>
      </trkpt>
      <trkpt lat="47.70666" lon="-2.38407">
        <ele>76.08</ele>
        <time>2014-08-04T12:25:55Z</time>
      </trkpt>
      <trkpt lat="47.70666" lon="-2.38392">
        <ele>76.08</ele>
        <time>2014-08-04T12:26:04Z</time>
      </trkpt>
      <trkpt lat="47.7067" lon="-2.38361">
        <ele>75.6</ele>
        <time>2014-08-04T12:26:22Z</time>
      </trkpt>
      <trkpt lat="47.70675" lon="-2.38334">
        <ele>76.08</ele>
        <time>2014-08-04T12:26:38Z</time>
      </trkpt>
      <trkpt lat="47.70682" lon="-2.38302">
        <ele>76.08</ele>
        <time>2014-08-04T12:26:58Z</time>
      </trkpt>
      <trkpt lat="47.70693" lon="-2.38269">
        <ele>76.56</ele>
        <time>2014-08-04T12:27:17Z</time>
      </trkpt>
      <trkpt lat="47.70699" lon="-2.38243">
        <ele>76.56</ele>
        <time>2014-08-04T12:27:32Z</time>
      </trkpt>
      <trkpt lat="47.70699" lon="-2.38217">
        <ele>76.56</ele>
        <time>2014-08-04T12:27:48Z</time>
      </trkpt>
      <trkpt lat="47.70701" lon="-2.38184">
        <ele>76.08</ele>
        <time>2014-08-04T12:28:05Z</time>
      </trkpt>
      <trkpt lat="47.70706" lon="-2.38159">
        <ele>76.08</ele>
        <time>2014-08-04T12:28:21Z</time>
      </trkpt>
      <trkpt lat="47.70715" lon="-2.38133">
        <ele>77.52</ele>
        <time>2014-08-04T12:28:38Z</time>
      </trkpt>
      <trkpt lat="47.70729" lon="-2.38119">
        <ele>78</ele>
        <time>2014-08-04T12:28:55Z</time>
      </trkpt>
      <trkpt lat="47.70733" lon="-2.38114">
        <ele>78.48</ele>
        <time>2014-08-04T12:28:58Z</time>
      </trkpt>
      <trkpt lat="47.70743" lon="-2.3809">
        <ele>78.97</ele>
        <time>2014-08-04T12:29:14Z</time>
      </trkpt>
      <trkpt lat="47.70745" lon="-2.38061">
        <ele>78.97</ele>
        <time>2014-08-04T12:29:29Z</time>
      </trkpt>
      <trkpt lat="47.70749" lon="-2.38036">
        <ele>78.97</ele>
        <time>2014-08-04T12:29:44Z</time>
      </trkpt>
      <trkpt lat="47.70752" lon="-2.38019">
        <ele>78.97</ele>
        <time>2014-08-04T12:30:02Z</time>
      </trkpt>
      <trkpt lat="47.70756" lon="-2.37989">
        <ele>78.97</ele>
        <time>2014-08-04T12:30:21Z</time>
      </trkpt>
      <trkpt lat="47.70759" lon="-2.37959">
        <ele>78.48</ele>
        <time>2014-08-04T12:30:39Z</time>
      </trkpt>
      <trkpt lat="47.70753" lon="-2.37927">
        <ele>78.48</ele>
        <time>2014-08-04T12:30:58Z</time>
      </trkpt>
      <trkpt lat="47.70747" lon="-2.37891">
        <ele>78</ele>
        <time>2014-08-04T12:31:16Z</time>
      </trkpt>
      <trkpt lat="47.70753" lon="-2.37865">
        <ele>77.52</ele>
        <time>2014-08-04T12:31:30Z</time>
      </trkpt>
      <trkpt lat="47.70752" lon="-2.37842">
        <ele>77.04</ele>
        <time>2014-08-04T12:31:46Z</time>
      </trkpt>
      <trkpt lat="47.70746" lon="-2.37808">
        <ele>77.04</ele>
        <time>2014-08-04T12:32:04Z</time>
      </trkpt>
      <trkpt lat="47.70743" lon="-2.37786">
        <ele>77.04</ele>
        <time>2014-08-04T12:32:16Z</time>
      </trkpt>
      <trkpt lat="47.70733" lon="-2.37759">
        <ele>78.48</ele>
        <time>2014-08-04T12:32:32Z</time>
      </trkpt>
      <trkpt lat="47.70729" lon="-2.37731">
        <ele>78.48</ele>
        <time>2014-08-04T12:32:48Z</time>
      </trkpt>
      <trkpt lat="47.70728" lon="-2.37698">
        <ele>78.48</ele>
        <time>2014-08-04T12:33:05Z</time>
      </trkpt>
      <trkpt lat="47.70729" lon="-2.37663">
        <ele>78.48</ele>
        <time>2014-08-04T12:33:24Z</time>
      </trkpt>
      <trkpt lat="47.70727" lon="-2.37638">
        <ele>78.97</ele>
        <time>2014-08-04T12:33:40Z</time>
      </trkpt>
      <trkpt lat="47.70728" lon="-2.37626">
        <ele>78.97</ele>
        <time>2014-08-04T12:33:46Z</time>
      </trkpt>
      <trkpt lat="47.70727" lon="-2.37614">
        <ele>78.48</ele>
        <time>2014-08-04T12:33:53Z</time>
      </trkpt>
      <trkpt lat="47.70725" lon="-2.37597">
        <ele>78.48</ele>
        <time>2014-08-04T12:34:03Z</time>
      </trkpt>
      <trkpt lat="47.70721" lon="-2.37563">
        <ele>78.48</ele>
        <time>2014-08-04T12:34:20Z</time>
      </trkpt>
      <trkpt lat="47.70719" lon="-2.37535">
        <ele>78.48</ele>
        <time>2014-08-04T12:34:37Z</time>
      </trkpt>
      <trkpt lat="47.70718" lon="-2.37508">
        <ele>78</ele>
        <time>2014-08-04T12:34:50Z</time>
      </trkpt>
      <trkpt lat="47.70726" lon="-2.37478">
        <ele>78</ele>
        <time>2014-08-04T12:35:07Z</time>
      </trkpt>
      <trkpt lat="47.7073" lon="-2.37449">
        <ele>78.48</ele>
        <time>2014-08-04T12:35:24Z</time>
      </trkpt>
      <trkpt lat="47.70733" lon="-2.37409">
        <ele>79.45</ele>
        <time>2014-08-04T12:35:44Z</time>
      </trkpt>
      <trkpt lat="47.70745" lon="-2.37387">
        <ele>79.93</ele>
        <time>2014-08-04T12:36:01Z</time>
      </trkpt>
      <trkpt lat="47.70751" lon="-2.37371">
        <ele>79.93</ele>
        <time>2014-08-04T12:36:19Z</time>
      </trkpt>
      <trkpt lat="47.70752" lon="-2.37367">
        <ele>79.93</ele>
        <time>2014-08-04T12:36:21Z</time>
      </trkpt>
      <trkpt lat="47.70755" lon="-2.37345">
        <ele>80.41</ele>
        <time>2014-08-04T12:36:36Z</time>
      </trkpt>
      <trkpt lat="47.70755" lon="-2.37317">
        <ele>80.41</ele>
        <time>2014-08-04T12:36:52Z</time>
      </trkpt>
      <trkpt lat="47.70753" lon="-2.37303">
        <ele>80.89</ele>
        <time>2014-08-04T12:37:02Z</time>
      </trkpt>
      <trkpt lat="47.70746" lon="-2.37285">
        <ele>81.37</ele>
        <time>2014-08-04T12:37:16Z</time>
      </trkpt>
      <trkpt lat="47.70746" lon="-2.37284">
        <ele>81.37</ele>
        <time>2014-08-04T12:37:35Z</time>
      </trkpt>
      <trkpt lat="47.70748" lon="-2.37284">
        <ele>81.37</ele>
        <time>2014-08-04T12:37:56Z</time>
      </trkpt>
      <trkpt lat="47.70745" lon="-2.37283">
        <ele>81.37</ele>
        <time>2014-08-04T12:38:21Z</time>
      </trkpt>
      <trkpt lat="47.70744" lon="-2.37285">
        <ele>81.37</ele>
        <time>2014-08-04T12:38:36Z</time>
      </trkpt>
      <trkpt lat="47.70744" lon="-2.37283">
        <ele>81.37</ele>
        <time>2014-08-04T12:38:49Z</time>
      </trkpt>
      <trkpt lat="47.70742" lon="-2.37285">
        <ele>81.37</ele>
        <time>2014-08-04T12:39:14Z</time>
      </trkpt>
      <trkpt lat="47.70737" lon="-2.37291">
        <ele>82.33</ele>
        <time>2014-08-04T12:39:33Z</time>
      </trkpt>
      <trkpt lat="47.70735" lon="-2.37287">
        <ele>83.29</ele>
        <time>2014-08-04T12:39:52Z</time>
      </trkpt>
      <trkpt lat="47.70738" lon="-2.37288">
        <ele>83.29</ele>
        <time>2014-08-04T12:40:15Z</time>
      </trkpt>
      <trkpt lat="47.70743" lon="-2.37283">
        <ele>81.85</ele>
        <time>2014-08-04T12:40:28Z</time>
      </trkpt>
      <trkpt lat="47.70743" lon="-2.37279">
        <ele>81.37</ele>
        <time>2014-08-04T12:40:54Z</time>
      </trkpt>
      <trkpt lat="47.70745" lon="-2.37282">
        <ele>81.85</ele>
        <time>2014-08-04T12:41:20Z</time>
      </trkpt>
      <trkpt lat="47.70743" lon="-2.37283">
        <ele>81.37</ele>
        <time>2014-08-04T12:41:46Z</time>
      </trkpt>
      <trkpt lat="47.70745" lon="-2.37283">
        <ele>81.37</ele>
        <time>2014-08-04T12:42:09Z</time>
      </trkpt>
      <trkpt lat="47.70747" lon="-2.3728">
        <ele>81.37</ele>
        <time>2014-08-04T12:42:24Z</time>
      </trkpt>
      <trkpt lat="47.70746" lon="-2.37265">
        <ele>81.37</ele>
        <time>2014-08-04T12:42:36Z</time>
      </trkpt>
      <trkpt lat="47.70745" lon="-2.3724">
        <ele>80.41</ele>
        <time>2014-08-04T12:42:51Z</time>
      </trkpt>
      <trkpt lat="47.70745" lon="-2.37239">
        <ele>79.45</ele>
        <time>2014-08-04T12:42:52Z</time>
      </trkpt>
      <trkpt lat="47.70743" lon="-2.37226">
        <ele>79.93</ele>
        <time>2014-08-04T12:43:03Z</time>
      </trkpt>
      <trkpt lat="47.7074" lon="-2.37207">
        <ele>78.97</ele>
        <time>2014-08-04T12:43:16Z</time>
      </trkpt>
      <trkpt lat="47.7074" lon="-2.37204">
        <ele>78.97</ele>
        <time>2014-08-04T12:43:20Z</time>
      </trkpt>
      <trkpt lat="47.70739" lon="-2.37171">
        <ele>77.52</ele>
        <time>2014-08-04T12:43:38Z</time>
      </trkpt>
      <trkpt lat="47.70739" lon="-2.37136">
        <ele>76.08</ele>
        <time>2014-08-04T12:43:55Z</time>
      </trkpt>
      <trkpt lat="47.70733" lon="-2.37104">
        <ele>75.6</ele>
        <time>2014-08-04T12:44:14Z</time>
      </trkpt>
      <trkpt lat="47.70732" lon="-2.37098">
        <ele>75.12</ele>
        <time>2014-08-04T12:44:18Z</time>
      </trkpt>
      <trkpt lat="47.70722" lon="-2.37074">
        <ele>74.16</ele>
        <time>2014-08-04T12:44:35Z</time>
      </trkpt>
      <trkpt lat="47.70717" lon="-2.37041">
        <ele>72.72</ele>
        <time>2014-08-04T12:44:54Z</time>
      </trkpt>
      <trkpt lat="47.70713" lon="-2.37011">
        <ele>71.27</ele>
        <time>2014-08-04T12:45:10Z</time>
      </trkpt>
      <trkpt lat="47.70708" lon="-2.36981">
        <ele>69.83</ele>
        <time>2014-08-04T12:45:28Z</time>
      </trkpt>
      <trkpt lat="47.70706" lon="-2.36948">
        <ele>68.39</ele>
        <time>2014-08-04T12:45:45Z</time>
      </trkpt>
      <trkpt lat="47.70693" lon="-2.3693">
        <ele>67.43</ele>
        <time>2014-08-04T12:45:59Z</time>
      </trkpt>
      <trkpt lat="47.70682" lon="-2.36912">
        <ele>65.99</ele>
        <time>2014-08-04T12:46:13Z</time>
      </trkpt>
      <trkpt lat="47.70677" lon="-2.36893">
        <ele>64.55</ele>
        <time>2014-08-04T12:46:26Z</time>
      </trkpt>
      <trkpt lat="47.70674" lon="-2.36875">
        <ele>64.07</ele>
        <time>2014-08-04T12:46:36Z</time>
      </trkpt>
      <trkpt lat="47.70674" lon="-2.36847">
        <ele>64.55</ele>
        <time>2014-08-04T12:46:51Z</time>
      </trkpt>
      <trkpt lat="47.70676" lon="-2.36836">
        <ele>64.55</ele>
        <time>2014-08-04T12:46:56Z</time>
      </trkpt>
      <trkpt lat="47.7067" lon="-2.36801">
        <ele>64.07</ele>
        <time>2014-08-04T12:47:15Z</time>
      </trkpt>
      <trkpt lat="47.70664" lon="-2.36768">
        <ele>63.1</ele>
        <time>2014-08-04T12:47:32Z</time>
      </trkpt>
      <trkpt lat="47.70656" lon="-2.36728">
        <ele>61.66</ele>
        <time>2014-08-04T12:47:54Z</time>
      </trkpt>
      <trkpt lat="47.70649" lon="-2.36698">
        <ele>60.22</ele>
        <time>2014-08-04T12:48:11Z</time>
      </trkpt>
      <trkpt lat="47.70642" lon="-2.36671">
        <ele>59.74</ele>
        <time>2014-08-04T12:48:26Z</time>
      </trkpt>
      <trkpt lat="47.70636" lon="-2.36636">
        <ele>58.3</ele>
        <time>2014-08-04T12:48:46Z</time>
      </trkpt>
      <trkpt lat="47.70631" lon="-2.36611">
        <ele>57.82</ele>
        <time>2014-08-04T12:48:59Z</time>
      </trkpt>
      <trkpt lat="47.70624" lon="-2.36581">
        <ele>57.34</ele>
        <time>2014-08-04T12:49:17Z</time>
      </trkpt>
      <trkpt lat="47.70627" lon="-2.36557">
        <ele>58.78</ele>
        <time>2014-08-04T12:49:38Z</time>
      </trkpt>
      <trkpt lat="47.70633" lon="-2.36514">
        <ele>60.7</ele>
        <time>2014-08-04T12:49:55Z</time>
      </trkpt>
      <trkpt lat="47.70634" lon="-2.36504">
        <ele>61.66</ele>
        <time>2014-08-04T12:50:02Z</time>
      </trkpt>
      <trkpt lat="47.70638" lon="-2.36488">
        <ele>63.1</ele>
        <time>2014-08-04T12:50:16Z</time>
      </trkpt>
      <trkpt lat="47.70653" lon="-2.36479">
        <ele>65.99</ele>
        <time>2014-08-04T12:50:32Z</time>
      </trkpt>
      <trkpt lat="47.70659" lon="-2.36465">
        <ele>67.43</ele>
        <time>2014-08-04T12:50:48Z</time>
      </trkpt>
      <trkpt lat="47.70667" lon="-2.36449">
        <ele>68.39</ele>
        <time>2014-08-04T12:51:06Z</time>
      </trkpt>
      <trkpt lat="47.70669" lon="-2.36439">
        <ele>68.39</ele>
        <time>2014-08-04T12:51:17Z</time>
      </trkpt>
      <trkpt lat="47.7067" lon="-2.36436">
        <ele>68.87</ele>
        <time>2014-08-04T12:51:20Z</time>
      </trkpt>
      <trkpt lat="47.70669" lon="-2.36424">
        <ele>68.87</ele>
        <time>2014-08-04T12:51:36Z</time>
      </trkpt>
      <trkpt lat="47.70679" lon="-2.36399">
        <ele>69.83</ele>
        <time>2014-08-04T12:51:51Z</time>
      </trkpt>
      <trkpt lat="47.70682" lon="-2.36396">
        <ele>69.83</ele>
        <time>2014-08-04T12:51:54Z</time>
      </trkpt>
      <trkpt lat="47.70691" lon="-2.36372">
        <ele>70.31</ele>
        <time>2014-08-04T12:52:10Z</time>
      </trkpt>
      <trkpt lat="47.70693" lon="-2.36355">
        <ele>70.79</ele>
        <time>2014-08-04T12:52:19Z</time>
      </trkpt>
      <trkpt lat="47.707" lon="-2.36322">
        <ele>71.76</ele>
        <time>2014-08-04T12:52:38Z</time>
      </trkpt>
      <trkpt lat="47.707" lon="-2.36311">
        <ele>72.72</ele>
        <time>2014-08-04T12:52:54Z</time>
      </trkpt>
      <trkpt lat="47.70696" lon="-2.36291">
        <ele>72.24</ele>
        <time>2014-08-04T12:53:12Z</time>
      </trkpt>
      <trkpt lat="47.70699" lon="-2.36258">
        <ele>72.72</ele>
        <time>2014-08-04T12:53:27Z</time>
      </trkpt>
      <trkpt lat="47.70697" lon="-2.36223">
        <ele>72.24</ele>
        <time>2014-08-04T12:53:45Z</time>
      </trkpt>
      <trkpt lat="47.70697" lon="-2.36202">
        <ele>72.24</ele>
        <time>2014-08-04T12:54:01Z</time>
      </trkpt>
      <trkpt lat="47.70697" lon="-2.36203">
        <ele>72.72</ele>
        <time>2014-08-04T12:54:15Z</time>
      </trkpt>
      <trkpt lat="47.70698" lon="-2.36205">
        <ele>72.24</ele>
        <time>2014-08-04T12:54:36Z</time>
      </trkpt>
      <trkpt lat="47.707" lon="-2.36204">
        <ele>72.24</ele>
        <time>2014-08-04T12:55:11Z</time>
      </trkpt>
      <trkpt lat="47.70697" lon="-2.36187">
        <ele>72.72</ele>
        <time>2014-08-04T12:55:29Z</time>
      </trkpt>
      <trkpt lat="47.70692" lon="-2.3616">
        <ele>72.72</ele>
        <time>2014-08-04T12:55:44Z</time>
      </trkpt>
      <trkpt lat="47.70694" lon="-2.36135">
        <ele>72.72</ele>
        <time>2014-08-04T12:55:58Z</time>
      </trkpt>
      <trkpt lat="47.70696" lon="-2.36133">
        <ele>72.72</ele>
        <time>2014-08-04T12:56:15Z</time>
      </trkpt>
      <trkpt lat="47.70706" lon="-2.36134">
        <ele>73.2</ele>
        <time>2014-08-04T12:56:34Z</time>
      </trkpt>
      <trkpt lat="47.70698" lon="-2.36114">
        <ele>72.72</ele>
        <time>2014-08-04T12:56:49Z</time>
      </trkpt>
      <trkpt lat="47.70693" lon="-2.36094">
        <ele>72.72</ele>
        <time>2014-08-04T12:57:06Z</time>
      </trkpt>
      <trkpt lat="47.70686" lon="-2.36066">
        <ele>73.2</ele>
        <time>2014-08-04T12:57:24Z</time>
      </trkpt>
      <trkpt lat="47.70688" lon="-2.36035">
        <ele>74.16</ele>
        <time>2014-08-04T12:57:43Z</time>
      </trkpt>
      <trkpt lat="47.70689" lon="-2.36013">
        <ele>73.68</ele>
        <time>2014-08-04T12:58:00Z</time>
      </trkpt>
      <trkpt lat="47.70686" lon="-2.35999">
        <ele>73.68</ele>
        <time>2014-08-04T12:58:24Z</time>
      </trkpt>
      <trkpt lat="47.70683" lon="-2.35984">
        <ele>73.68</ele>
        <time>2014-08-04T12:58:32Z</time>
      </trkpt>
      <trkpt lat="47.70679" lon="-2.35961">
        <ele>74.16</ele>
        <time>2014-08-04T12:58:46Z</time>
      </trkpt>
      <trkpt lat="47.70674" lon="-2.35937">
        <ele>74.16</ele>
        <time>2014-08-04T12:59:00Z</time>
      </trkpt>
      <trkpt lat="47.70674" lon="-2.35935">
        <ele>74.16</ele>
        <time>2014-08-04T12:59:01Z</time>
      </trkpt>
      <trkpt lat="47.70679" lon="-2.35912">
        <ele>73.2</ele>
        <time>2014-08-04T12:59:16Z</time>
      </trkpt>
      <trkpt lat="47.70674" lon="-2.35891">
        <ele>73.2</ele>
        <time>2014-08-04T12:59:29Z</time>
      </trkpt>
      <trkpt lat="47.70671" lon="-2.35882">
        <ele>73.2</ele>
        <time>2014-08-04T12:59:39Z</time>
      </trkpt>
      <trkpt lat="47.70667" lon="-2.3586">
        <ele>72.24</ele>
        <time>2014-08-04T12:59:53Z</time>
      </trkpt>
      <trkpt lat="47.70666" lon="-2.35857">
        <ele>72.24</ele>
        <time>2014-08-04T12:59:55Z</time>
      </trkpt>
      <trkpt lat="47.70658" lon="-2.35829">
        <ele>71.76</ele>
        <time>2014-08-04T13:00:10Z</time>
      </trkpt>
      <trkpt lat="47.70655" lon="-2.35802">
        <ele>71.27</ele>
        <time>2014-08-04T13:00:24Z</time>
      </trkpt>
      <trkpt lat="47.70659" lon="-2.35789">
        <ele>71.76</ele>
        <time>2014-08-04T13:00:31Z</time>
      </trkpt>
      <trkpt lat="47.70654" lon="-2.35753">
        <ele>71.27</ele>
        <time>2014-08-04T13:00:52Z</time>
      </trkpt>
      <trkpt lat="47.70654" lon="-2.35738">
        <ele>71.27</ele>
        <time>2014-08-04T13:01:04Z</time>
      </trkpt>
      <trkpt lat="47.70651" lon="-2.35732">
        <ele>71.27</ele>
        <time>2014-08-04T13:01:18Z</time>
      </trkpt>
      <trkpt lat="47.70648" lon="-2.35725">
        <ele>70.79</ele>
        <time>2014-08-04T13:01:30Z</time>
      </trkpt>
      <trkpt lat="47.70647" lon="-2.35726">
        <ele>70.79</ele>
        <time>2014-08-04T13:01:38Z</time>
      </trkpt>
      <trkpt lat="47.70639" lon="-2.35718">
        <ele>70.31</ele>
        <time>2014-08-04T13:01:57Z</time>
      </trkpt>
      <trkpt lat="47.70629" lon="-2.35693">
        <ele>69.83</ele>
        <time>2014-08-04T13:02:13Z</time>
      </trkpt>
      <trkpt lat="47.70623" lon="-2.35663">
        <ele>68.87</ele>
        <time>2014-08-04T13:02:29Z</time>
      </trkpt>
      <trkpt lat="47.70623" lon="-2.35662">
        <ele>68.87</ele>
        <time>2014-08-04T13:02:30Z</time>
      </trkpt>
      <trkpt lat="47.70625" lon="-2.35645">
        <ele>69.35</ele>
        <time>2014-08-04T13:02:49Z</time>
      </trkpt>
      <trkpt lat="47.70623" lon="-2.35644">
        <ele>69.35</ele>
        <time>2014-08-04T13:02:51Z</time>
      </trkpt>
      <trkpt lat="47.70614" lon="-2.35638">
        <ele>69.35</ele>
        <time>2014-08-04T13:03:04Z</time>
      </trkpt>
      <trkpt lat="47.70601" lon="-2.35625">
        <ele>68.87</ele>
        <time>2014-08-04T13:03:19Z</time>
      </trkpt>
      <trkpt lat="47.70598" lon="-2.35625">
        <ele>68.87</ele>
        <time>2014-08-04T13:03:21Z</time>
      </trkpt>
      <trkpt lat="47.70582" lon="-2.35631">
        <ele>68.87</ele>
        <time>2014-08-04T13:03:37Z</time>
      </trkpt>
      <trkpt lat="47.70579" lon="-2.35633">
        <ele>68.39</ele>
        <time>2014-08-04T13:03:52Z</time>
      </trkpt>
      <trkpt lat="47.70564" lon="-2.35636">
        <ele>67.43</ele>
        <time>2014-08-04T13:04:06Z</time>
      </trkpt>
      <trkpt lat="47.70543" lon="-2.35635">
        <ele>66.95</ele>
        <time>2014-08-04T13:04:24Z</time>
      </trkpt>
      <trkpt lat="47.70523" lon="-2.35628">
        <ele>66.95</ele>
        <time>2014-08-04T13:04:40Z</time>
      </trkpt>
      <trkpt lat="47.70516" lon="-2.35611">
        <ele>66.95</ele>
        <time>2014-08-04T13:04:53Z</time>
      </trkpt>
      <trkpt lat="47.70517" lon="-2.35609">
        <ele>66.95</ele>
        <time>2014-08-04T13:04:54Z</time>
      </trkpt>
      <trkpt lat="47.70515" lon="-2.35586">
        <ele>66.47</ele>
        <time>2014-08-04T13:05:08Z</time>
      </trkpt>
      <trkpt lat="47.70517" lon="-2.35583">
        <ele>66.47</ele>
        <time>2014-08-04T13:05:11Z</time>
      </trkpt>
      <trkpt lat="47.70537" lon="-2.35567">
        <ele>67.43</ele>
        <time>2014-08-04T13:05:28Z</time>
      </trkpt>
      <trkpt lat="47.70536" lon="-2.35556">
        <ele>67.91</ele>
        <time>2014-08-04T13:05:47Z</time>
      </trkpt>
      <trkpt lat="47.70536" lon="-2.35538">
        <ele>67.91</ele>
        <time>2014-08-04T13:05:59Z</time>
      </trkpt>
      <trkpt lat="47.70538" lon="-2.35518">
        <ele>68.87</ele>
        <time>2014-08-04T13:06:12Z</time>
      </trkpt>
      <trkpt lat="47.70538" lon="-2.3551">
        <ele>68.39</ele>
        <time>2014-08-04T13:06:18Z</time>
      </trkpt>
      <trkpt lat="47.70545" lon="-2.35491">
        <ele>69.35</ele>
        <time>2014-08-04T13:06:32Z</time>
      </trkpt>
      <trkpt lat="47.70547" lon="-2.35484">
        <ele>69.35</ele>
        <time>2014-08-04T13:06:46Z</time>
      </trkpt>
      <trkpt lat="47.70544" lon="-2.35469">
        <ele>69.35</ele>
        <time>2014-08-04T13:06:55Z</time>
      </trkpt>
      <trkpt lat="47.70546" lon="-2.35462">
        <ele>69.83</ele>
        <time>2014-08-04T13:06:59Z</time>
      </trkpt>
      <trkpt lat="47.70545" lon="-2.35458">
        <ele>69.83</ele>
        <time>2014-08-04T13:07:02Z</time>
      </trkpt>
      <trkpt lat="47.70543" lon="-2.35453">
        <ele>69.35</ele>
        <time>2014-08-04T13:07:11Z</time>
      </trkpt>
      <trkpt lat="47.70544" lon="-2.35445">
        <ele>69.83</ele>
        <time>2014-08-04T13:07:23Z</time>
      </trkpt>
      <trkpt lat="47.70543" lon="-2.3544">
        <ele>69.83</ele>
        <time>2014-08-04T13:07:27Z</time>
      </trkpt>
      <trkpt lat="47.7054" lon="-2.35426">
        <ele>69.83</ele>
        <time>2014-08-04T13:07:41Z</time>
      </trkpt>
      <trkpt lat="47.70536" lon="-2.3542">
        <ele>68.87</ele>
        <time>2014-08-04T13:07:56Z</time>
      </trkpt>
      <trkpt lat="47.70538" lon="-2.35411">
        <ele>69.35</ele>
        <time>2014-08-04T13:08:04Z</time>
      </trkpt>
      <trkpt lat="47.70542" lon="-2.35402">
        <ele>69.83</ele>
        <time>2014-08-04T13:08:18Z</time>
      </trkpt>
      <trkpt lat="47.70544" lon="-2.354">
        <ele>70.31</ele>
        <time>2014-08-04T13:08:24Z</time>
      </trkpt>
      <trkpt lat="47.70542" lon="-2.35395">
        <ele>70.31</ele>
        <time>2014-08-04T13:08:27Z</time>
      </trkpt>
      <trkpt lat="47.70543" lon="-2.35387">
        <ele>70.79</ele>
        <time>2014-08-04T13:08:32Z</time>
      </trkpt>
      <trkpt lat="47.70542" lon="-2.35372">
        <ele>71.27</ele>
        <time>2014-08-04T13:08:41Z</time>
      </trkpt>
      <trkpt lat="47.70541" lon="-2.35366">
        <ele>71.27</ele>
        <time>2014-08-04T13:08:45Z</time>
      </trkpt>
      <trkpt lat="47.70543" lon="-2.35359">
        <ele>71.76</ele>
        <time>2014-08-04T13:08:50Z</time>
      </trkpt>
      <trkpt lat="47.70543" lon="-2.35348">
        <ele>71.27</ele>
        <time>2014-08-04T13:08:57Z</time>
      </trkpt>
      <trkpt lat="47.70545" lon="-2.35342">
        <ele>71.76</ele>
        <time>2014-08-04T13:09:01Z</time>
      </trkpt>
      <trkpt lat="47.70548" lon="-2.35337">
        <ele>72.24</ele>
        <time>2014-08-04T13:09:07Z</time>
      </trkpt>
      <trkpt lat="47.70555" lon="-2.35323">
        <ele>72.72</ele>
        <time>2014-08-04T13:09:23Z</time>
      </trkpt>
      <trkpt lat="47.70559" lon="-2.35316">
        <ele>73.2</ele>
        <time>2014-08-04T13:09:43Z</time>
      </trkpt>
      <trkpt lat="47.70557" lon="-2.35304">
        <ele>72.72</ele>
        <time>2014-08-04T13:10:01Z</time>
      </trkpt>
      <trkpt lat="47.70556" lon="-2.35296">
        <ele>72.72</ele>
        <time>2014-08-04T13:10:13Z</time>
      </trkpt>
      <trkpt lat="47.70561" lon="-2.35283">
        <ele>72.24</ele>
        <time>2014-08-04T13:10:25Z</time>
      </trkpt>
      <trkpt lat="47.70566" lon="-2.35283">
        <ele>72.72</ele>
        <time>2014-08-04T13:10:38Z</time>
      </trkpt>
      <trkpt lat="47.70569" lon="-2.35276">
        <ele>72.72</ele>
        <time>2014-08-04T13:10:52Z</time>
      </trkpt>
      <trkpt lat="47.7057" lon="-2.35274">
        <ele>72.72</ele>
        <time>2014-08-04T13:11:06Z</time>
      </trkpt>
      <trkpt lat="47.70573" lon="-2.35268">
        <ele>72.72</ele>
        <time>2014-08-04T13:11:17Z</time>
      </trkpt>
      <trkpt lat="47.70585" lon="-2.35253">
        <ele>72.72</ele>
        <time>2014-08-04T13:11:32Z</time>
      </trkpt>
      <trkpt lat="47.70598" lon="-2.35234">
        <ele>72.24</ele>
        <time>2014-08-04T13:11:51Z</time>
      </trkpt>
      <trkpt lat="47.70595" lon="-2.35217">
        <ele>72.24</ele>
        <time>2014-08-04T13:12:06Z</time>
      </trkpt>
      <trkpt lat="47.70594" lon="-2.35205">
        <ele>72.24</ele>
        <time>2014-08-04T13:12:15Z</time>
      </trkpt>
      <trkpt lat="47.70591" lon="-2.35182">
        <ele>72.24</ele>
        <time>2014-08-04T13:12:30Z</time>
      </trkpt>
      <trkpt lat="47.70588" lon="-2.35155">
        <ele>72.24</ele>
        <time>2014-08-04T13:12:43Z</time>
      </trkpt>
      <trkpt lat="47.7059" lon="-2.3513">
        <ele>72.72</ele>
        <time>2014-08-04T13:12:56Z</time>
      </trkpt>
      <trkpt lat="47.70586" lon="-2.35097">
        <ele>72.72</ele>
        <time>2014-08-04T13:13:15Z</time>
      </trkpt>
      <trkpt lat="47.70586" lon="-2.35086">
        <ele>73.2</ele>
        <time>2014-08-04T13:13:22Z</time>
      </trkpt>
      <trkpt lat="47.70583" lon="-2.35056">
        <ele>73.2</ele>
        <time>2014-08-04T13:13:40Z</time>
      </trkpt>
      <trkpt lat="47.70583" lon="-2.35055">
        <ele>73.2</ele>
        <time>2014-08-04T13:13:41Z</time>
      </trkpt>
      <trkpt lat="47.70579" lon="-2.35036">
        <ele>73.68</ele>
        <time>2014-08-04T13:13:52Z</time>
      </trkpt>
      <trkpt lat="47.70578" lon="-2.35033">
        <ele>73.68</ele>
        <time>2014-08-04T13:13:54Z</time>
      </trkpt>
      <trkpt lat="47.70574" lon="-2.35005">
        <ele>73.68</ele>
        <time>2014-08-04T13:14:11Z</time>
      </trkpt>
      <trkpt lat="47.70568" lon="-2.34974">
        <ele>73.68</ele>
        <time>2014-08-04T13:14:29Z</time>
      </trkpt>
      <trkpt lat="47.70563" lon="-2.3495">
        <ele>74.16</ele>
        <time>2014-08-04T13:14:44Z</time>
      </trkpt>
      <trkpt lat="47.70552" lon="-2.34921">
        <ele>73.68</ele>
        <time>2014-08-04T13:15:03Z</time>
      </trkpt>
      <trkpt lat="47.70542" lon="-2.34895">
        <ele>73.68</ele>
        <time>2014-08-04T13:15:21Z</time>
      </trkpt>
      <trkpt lat="47.70529" lon="-2.34865">
        <ele>73.2</ele>
        <time>2014-08-04T13:15:40Z</time>
      </trkpt>
      <trkpt lat="47.70523" lon="-2.34834">
        <ele>73.2</ele>
        <time>2014-08-04T13:15:58Z</time>
      </trkpt>
      <trkpt lat="47.70522" lon="-2.34804">
        <ele>72.72</ele>
        <time>2014-08-04T13:16:13Z</time>
      </trkpt>
      <trkpt lat="47.70523" lon="-2.348">
        <ele>72.72</ele>
        <time>2014-08-04T13:16:16Z</time>
      </trkpt>
      <trkpt lat="47.7052" lon="-2.34793">
        <ele>72.72</ele>
        <time>2014-08-04T13:16:20Z</time>
      </trkpt>
      <trkpt lat="47.70512" lon="-2.34787">
        <ele>72.72</ele>
        <time>2014-08-04T13:16:28Z</time>
      </trkpt>
      <trkpt lat="47.70498" lon="-2.34788">
        <ele>72.24</ele>
        <time>2014-08-04T13:16:41Z</time>
      </trkpt>
      <trkpt lat="47.70492" lon="-2.34778">
        <ele>71.76</ele>
        <time>2014-08-04T13:16:54Z</time>
      </trkpt>
      <trkpt lat="47.70493" lon="-2.34778">
        <ele>71.27</ele>
        <time>2014-08-04T13:17:10Z</time>
      </trkpt>
      <trkpt lat="47.70483" lon="-2.34777">
        <ele>70.79</ele>
        <time>2014-08-04T13:17:27Z</time>
      </trkpt>
      <trkpt lat="47.70476" lon="-2.34762">
        <ele>67.91</ele>
        <time>2014-08-04T13:17:42Z</time>
      </trkpt>
      <trkpt lat="47.70465" lon="-2.3474">
        <ele>67.43</ele>
        <time>2014-08-04T13:17:59Z</time>
      </trkpt>
      <trkpt lat="47.70464" lon="-2.34731">
        <ele>68.87</ele>
        <time>2014-08-04T13:18:05Z</time>
      </trkpt>
      <trkpt lat="47.70449" lon="-2.34724">
        <ele>69.83</ele>
        <time>2014-08-04T13:18:20Z</time>
      </trkpt>
      <trkpt lat="47.70444" lon="-2.34711">
        <ele>69.83</ele>
        <time>2014-08-04T13:18:31Z</time>
      </trkpt>
      <trkpt lat="47.70444" lon="-2.34708">
        <ele>69.83</ele>
        <time>2014-08-04T13:18:33Z</time>
      </trkpt>
      <trkpt lat="47.70445" lon="-2.34683">
        <ele>69.83</ele>
        <time>2014-08-04T13:18:49Z</time>
      </trkpt>
      <trkpt lat="47.70444" lon="-2.34682">
        <ele>69.83</ele>
        <time>2014-08-04T13:18:50Z</time>
      </trkpt>
      <trkpt lat="47.70441" lon="-2.34679">
        <ele>69.35</ele>
        <time>2014-08-04T13:18:55Z</time>
      </trkpt>
      <trkpt lat="47.70439" lon="-2.34679">
        <ele>68.87</ele>
        <time>2014-08-04T13:18:57Z</time>
      </trkpt>
      <trkpt lat="47.7043" lon="-2.34661">
        <ele>68.87</ele>
        <time>2014-08-04T13:19:11Z</time>
      </trkpt>
      <trkpt lat="47.70422" lon="-2.34642">
        <ele>68.87</ele>
        <time>2014-08-04T13:19:26Z</time>
      </trkpt>
      <trkpt lat="47.70414" lon="-2.34621">
        <ele>69.35</ele>
        <time>2014-08-04T13:19:43Z</time>
      </trkpt>
      <trkpt lat="47.70413" lon="-2.3461">
        <ele>70.31</ele>
        <time>2014-08-04T13:19:52Z</time>
      </trkpt>
      <trkpt lat="47.70413" lon="-2.34607">
        <ele>70.31</ele>
        <time>2014-08-04T13:19:54Z</time>
      </trkpt>
      <trkpt lat="47.70405" lon="-2.34583">
        <ele>70.79</ele>
        <time>2014-08-04T13:20:11Z</time>
      </trkpt>
      <trkpt lat="47.70402" lon="-2.3457">
        <ele>71.27</ele>
        <time>2014-08-04T13:20:19Z</time>
      </trkpt>
      <trkpt lat="47.704" lon="-2.34558">
        <ele>71.27</ele>
        <time>2014-08-04T13:20:26Z</time>
      </trkpt>
      <trkpt lat="47.704" lon="-2.34554">
        <ele>71.76</ele>
        <time>2014-08-04T13:20:28Z</time>
      </trkpt>
      <trkpt lat="47.70399" lon="-2.34549">
        <ele>71.76</ele>
        <time>2014-08-04T13:20:31Z</time>
      </trkpt>
      <trkpt lat="47.70396" lon="-2.34537">
        <ele>71.76</ele>
        <time>2014-08-04T13:20:39Z</time>
      </trkpt>
      <trkpt lat="47.70393" lon="-2.34526">
        <ele>71.27</ele>
        <time>2014-08-04T13:20:53Z</time>
      </trkpt>
      <trkpt lat="47.7039" lon="-2.34515">
        <ele>71.27</ele>
        <time>2014-08-04T13:21:04Z</time>
      </trkpt>
      <trkpt lat="47.70382" lon="-2.34514">
        <ele>70.31</ele>
        <time>2014-08-04T13:21:10Z</time>
      </trkpt>
      <trkpt lat="47.70368" lon="-2.345">
        <ele>71.27</ele>
        <time>2014-08-04T13:21:26Z</time>
      </trkpt>
      <trkpt lat="47.70365" lon="-2.34485">
        <ele>71.27</ele>
        <time>2014-08-04T13:21:42Z</time>
      </trkpt>
      <trkpt lat="47.70366" lon="-2.34478">
        <ele>71.27</ele>
        <time>2014-08-04T13:21:54Z</time>
      </trkpt>
      <trkpt lat="47.70367" lon="-2.34475">
        <ele>71.76</ele>
        <time>2014-08-04T13:21:56Z</time>
      </trkpt>
      <trkpt lat="47.70371" lon="-2.34458">
        <ele>72.24</ele>
        <time>2014-08-04T13:22:07Z</time>
      </trkpt>
      <trkpt lat="47.70373" lon="-2.34456">
        <ele>72.24</ele>
        <time>2014-08-04T13:22:20Z</time>
      </trkpt>
      <trkpt lat="47.70374" lon="-2.34448">
        <ele>72.24</ele>
        <time>2014-08-04T13:22:33Z</time>
      </trkpt>
      <trkpt lat="47.70377" lon="-2.34441">
        <ele>72.72</ele>
        <time>2014-08-04T13:22:43Z</time>
      </trkpt>
      <trkpt lat="47.70377" lon="-2.34417">
        <ele>72.24</ele>
        <time>2014-08-04T13:22:56Z</time>
      </trkpt>
      <trkpt lat="47.70373" lon="-2.34405">
        <ele>72.24</ele>
        <time>2014-08-04T13:23:12Z</time>
      </trkpt>
      <trkpt lat="47.70371" lon="-2.34396">
        <ele>71.76</ele>
        <time>2014-08-04T13:23:24Z</time>
      </trkpt>
      <trkpt lat="47.70371" lon="-2.34397">
        <ele>71.76</ele>
        <time>2014-08-04T13:23:43Z</time>
      </trkpt>
      <trkpt lat="47.7037" lon="-2.34389">
        <ele>71.27</ele>
        <time>2014-08-04T13:23:50Z</time>
      </trkpt>
      <trkpt lat="47.70371" lon="-2.34383">
        <ele>72.24</ele>
        <time>2014-08-04T13:23:53Z</time>
      </trkpt>
      <trkpt lat="47.70369" lon="-2.34371">
        <ele>72.24</ele>
        <time>2014-08-04T13:24:00Z</time>
      </trkpt>
      <trkpt lat="47.70371" lon="-2.34362">
        <ele>72.72</ele>
        <time>2014-08-04T13:24:05Z</time>
      </trkpt>
      <trkpt lat="47.70367" lon="-2.34336">
        <ele>73.2</ele>
        <time>2014-08-04T13:24:21Z</time>
      </trkpt>
      <trkpt lat="47.70366" lon="-2.34319">
        <ele>73.2</ele>
        <time>2014-08-04T13:24:31Z</time>
      </trkpt>
      <trkpt lat="47.70358" lon="-2.34311">
        <ele>73.2</ele>
        <time>2014-08-04T13:24:45Z</time>
      </trkpt>
      <trkpt lat="47.7036" lon="-2.34309">
        <ele>73.2</ele>
        <time>2014-08-04T13:24:50Z</time>
      </trkpt>
      <trkpt lat="47.70353" lon="-2.34276">
        <ele>72.72</ele>
        <time>2014-08-04T13:25:08Z</time>
      </trkpt>
      <trkpt lat="47.70342" lon="-2.34257">
        <ele>72.24</ele>
        <time>2014-08-04T13:25:24Z</time>
      </trkpt>
      <trkpt lat="47.70341" lon="-2.34248">
        <ele>72.24</ele>
        <time>2014-08-04T13:25:38Z</time>
      </trkpt>
      <trkpt lat="47.70342" lon="-2.34226">
        <ele>71.76</ele>
        <time>2014-08-04T13:25:53Z</time>
      </trkpt>
      <trkpt lat="47.70341" lon="-2.3422">
        <ele>71.27</ele>
        <time>2014-08-04T13:26:05Z</time>
      </trkpt>
      <trkpt lat="47.70338" lon="-2.34194">
        <ele>70.31</ele>
        <time>2014-08-04T13:26:23Z</time>
      </trkpt>
      <trkpt lat="47.7034" lon="-2.34171">
        <ele>70.79</ele>
        <time>2014-08-04T13:26:38Z</time>
      </trkpt>
      <trkpt lat="47.70338" lon="-2.34161">
        <ele>71.27</ele>
        <time>2014-08-04T13:26:49Z</time>
      </trkpt>
      <trkpt lat="47.70338" lon="-2.34161">
        <ele>71.27</ele>
        <time>2014-08-04T13:26:53Z</time>
      </trkpt>
      <trkpt lat="47.70337" lon="-2.34148">
        <ele>71.27</ele>
        <time>2014-08-04T13:27:06Z</time>
      </trkpt>
      <trkpt lat="47.70329" lon="-2.34119">
        <ele>69.35</ele>
        <time>2014-08-04T13:27:22Z</time>
      </trkpt>
      <trkpt lat="47.70323" lon="-2.34114">
        <ele>68.87</ele>
        <time>2014-08-04T13:27:33Z</time>
      </trkpt>
      <trkpt lat="47.70324" lon="-2.3412">
        <ele>68.39</ele>
        <time>2014-08-04T13:27:47Z</time>
      </trkpt>
      <trkpt lat="47.70319" lon="-2.34123">
        <ele>67.91</ele>
        <time>2014-08-04T13:28:01Z</time>
      </trkpt>
      <trkpt lat="47.70316" lon="-2.34127">
        <ele>65.99</ele>
        <time>2014-08-04T13:28:11Z</time>
      </trkpt>
      <trkpt lat="47.70311" lon="-2.34137">
        <ele>62.62</ele>
        <time>2014-08-04T13:28:26Z</time>
      </trkpt>
      <trkpt lat="47.70304" lon="-2.34139">
        <ele>60.7</ele>
        <time>2014-08-04T13:28:43Z</time>
      </trkpt>
      <trkpt lat="47.70296" lon="-2.34149">
        <ele>58.3</ele>
        <time>2014-08-04T13:29:02Z</time>
      </trkpt>
      <trkpt lat="47.70289" lon="-2.34156">
        <ele>54.93</ele>
        <time>2014-08-04T13:29:18Z</time>
      </trkpt>
      <trkpt lat="47.70284" lon="-2.34167">
        <ele>51.57</ele>
        <time>2014-08-04T13:29:31Z</time>
      </trkpt>
      <trkpt lat="47.70275" lon="-2.34177">
        <ele>48.68</ele>
        <time>2014-08-04T13:29:46Z</time>
      </trkpt>
      <trkpt lat="47.70269" lon="-2.34182">
        <ele>45.32</ele>
        <time>2014-08-04T13:30:03Z</time>
      </trkpt>
      <trkpt lat="47.70263" lon="-2.34197">
        <ele>42.44</ele>
        <time>2014-08-04T13:30:23Z</time>
      </trkpt>
      <trkpt lat="47.70256" lon="-2.34196">
        <ele>39.07</ele>
        <time>2014-08-04T13:30:36Z</time>
      </trkpt>
      <trkpt lat="47.70254" lon="-2.34207">
        <ele>36.67</ele>
        <time>2014-08-04T13:30:48Z</time>
      </trkpt>
      <trkpt lat="47.70248" lon="-2.34194">
        <ele>35.71</ele>
        <time>2014-08-04T13:31:01Z</time>
      </trkpt>
      <trkpt lat="47.70235" lon="-2.34174">
        <ele>33.3</ele>
        <time>2014-08-04T13:31:17Z</time>
      </trkpt>
      <trkpt lat="47.70224" lon="-2.34147">
        <ele>31.86</ele>
        <time>2014-08-04T13:31:36Z</time>
      </trkpt>
      <trkpt lat="47.70212" lon="-2.34136">
        <ele>30.9</ele>
        <time>2014-08-04T13:31:52Z</time>
      </trkpt>
      <trkpt lat="47.70208" lon="-2.34112">
        <ele>30.42</ele>
        <time>2014-08-04T13:32:13Z</time>
      </trkpt>
      <trkpt lat="47.70207" lon="-2.34095">
        <ele>29.94</ele>
        <time>2014-08-04T13:32:32Z</time>
      </trkpt>
      <trkpt lat="47.702" lon="-2.34092">
        <ele>29.94</ele>
        <time>2014-08-04T13:32:50Z</time>
      </trkpt>
      <trkpt lat="47.70199" lon="-2.34071">
        <ele>28.98</ele>
        <time>2014-08-04T13:33:03Z</time>
      </trkpt>
      <trkpt lat="47.70199" lon="-2.34043">
        <ele>28.02</ele>
        <time>2014-08-04T13:33:20Z</time>
      </trkpt>
      <trkpt lat="47.70199" lon="-2.34011">
        <ele>27.05</ele>
        <time>2014-08-04T13:33:40Z</time>
      </trkpt>
      <trkpt lat="47.70192" lon="-2.33977">
        <ele>25.61</ele>
        <time>2014-08-04T13:33:59Z</time>
      </trkpt>
      <trkpt lat="47.70192" lon="-2.33971">
        <ele>25.61</ele>
        <time>2014-08-04T13:34:02Z</time>
      </trkpt>
      <trkpt lat="47.7019" lon="-2.33937">
        <ele>24.65</ele>
        <time>2014-08-04T13:34:20Z</time>
      </trkpt>
      <trkpt lat="47.7019" lon="-2.33928">
        <ele>24.65</ele>
        <time>2014-08-04T13:34:24Z</time>
      </trkpt>
      <trkpt lat="47.7019" lon="-2.3389">
        <ele>23.69</ele>
        <time>2014-08-04T13:34:44Z</time>
      </trkpt>
      <trkpt lat="47.70194" lon="-2.33859">
        <ele>23.21</ele>
        <time>2014-08-04T13:35:01Z</time>
      </trkpt>
      <trkpt lat="47.70197" lon="-2.3385">
        <ele>22.73</ele>
        <time>2014-08-04T13:35:06Z</time>
      </trkpt>
      <trkpt lat="47.70203" lon="-2.33823">
        <ele>21.77</ele>
        <time>2014-08-04T13:35:23Z</time>
      </trkpt>
      <trkpt lat="47.70202" lon="-2.33823">
        <ele>21.77</ele>
        <time>2014-08-04T13:35:40Z</time>
      </trkpt>
      <trkpt lat="47.70204" lon="-2.33813">
        <ele>21.77</ele>
        <time>2014-08-04T13:35:53Z</time>
      </trkpt>
      <trkpt lat="47.70207" lon="-2.33799">
        <ele>21.29</ele>
        <time>2014-08-04T13:36:07Z</time>
      </trkpt>
      <trkpt lat="47.70205" lon="-2.33782">
        <ele>20.81</ele>
        <time>2014-08-04T13:36:19Z</time>
      </trkpt>
      <trkpt lat="47.70198" lon="-2.33768">
        <ele>20.81</ele>
        <time>2014-08-04T13:36:29Z</time>
      </trkpt>
      <trkpt lat="47.70197" lon="-2.33764">
        <ele>20.81</ele>
        <time>2014-08-04T13:36:32Z</time>
      </trkpt>
      <trkpt lat="47.70189" lon="-2.3376">
        <ele>21.29</ele>
        <time>2014-08-04T13:36:39Z</time>
      </trkpt>
      <trkpt lat="47.70179" lon="-2.33751">
        <ele>21.29</ele>
        <time>2014-08-04T13:36:57Z</time>
      </trkpt>
      <trkpt lat="47.70178" lon="-2.33754">
        <ele>21.29</ele>
        <time>2014-08-04T13:37:11Z</time>
      </trkpt>
      <trkpt lat="47.70173" lon="-2.33754">
        <ele>21.29</ele>
        <time>2014-08-04T13:37:34Z</time>
      </trkpt>
      <trkpt lat="47.70159" lon="-2.33759">
        <ele>21.77</ele>
        <time>2014-08-04T13:37:48Z</time>
      </trkpt>
      <trkpt lat="47.70142" lon="-2.33761">
        <ele>23.21</ele>
        <time>2014-08-04T13:38:04Z</time>
      </trkpt>
      <trkpt lat="47.70136" lon="-2.33764">
        <ele>23.69</ele>
        <time>2014-08-04T13:38:20Z</time>
      </trkpt>
      <trkpt lat="47.7013" lon="-2.33765">
        <ele>24.17</ele>
        <time>2014-08-04T13:38:38Z</time>
      </trkpt>
      <trkpt lat="47.70117" lon="-2.33755">
        <ele>25.61</ele>
        <time>2014-08-04T13:38:58Z</time>
      </trkpt>
      <trkpt lat="47.70118" lon="-2.33755">
        <ele>25.61</ele>
        <time>2014-08-04T13:39:15Z</time>
      </trkpt>
      <trkpt lat="47.70115" lon="-2.33752">
        <ele>25.61</ele>
        <time>2014-08-04T13:39:39Z</time>
      </trkpt>
      <trkpt lat="47.70111" lon="-2.33743">
        <ele>26.09</ele>
        <time>2014-08-04T13:39:47Z</time>
      </trkpt>
      <trkpt lat="47.70108" lon="-2.33736">
        <ele>26.57</ele>
        <time>2014-08-04T13:39:53Z</time>
      </trkpt>
      <trkpt lat="47.70087" lon="-2.33732">
        <ele>28.5</ele>
        <time>2014-08-04T13:40:11Z</time>
      </trkpt>
      <trkpt lat="47.70073" lon="-2.3373">
        <ele>29.94</ele>
        <time>2014-08-04T13:40:26Z</time>
      </trkpt>
      <trkpt lat="47.70064" lon="-2.33734">
        <ele>32.34</ele>
        <time>2014-08-04T13:40:40Z</time>
      </trkpt>
      <trkpt lat="47.70053" lon="-2.33739">
        <ele>34.74</ele>
        <time>2014-08-04T13:40:55Z</time>
      </trkpt>
      <trkpt lat="47.70043" lon="-2.33745">
        <ele>37.63</ele>
        <time>2014-08-04T13:41:12Z</time>
      </trkpt>
      <trkpt lat="47.70034" lon="-2.33751">
        <ele>40.51</ele>
        <time>2014-08-04T13:41:28Z</time>
      </trkpt>
      <trkpt lat="47.70025" lon="-2.33752">
        <ele>43.88</ele>
        <time>2014-08-04T13:41:46Z</time>
      </trkpt>
      <trkpt lat="47.7002" lon="-2.33754">
        <ele>46.76</ele>
        <time>2014-08-04T13:42:00Z</time>
      </trkpt>
      <trkpt lat="47.70014" lon="-2.33756">
        <ele>50.13</ele>
        <time>2014-08-04T13:42:14Z</time>
      </trkpt>
      <trkpt lat="47.70008" lon="-2.33758">
        <ele>53.01</ele>
        <time>2014-08-04T13:42:31Z</time>
      </trkpt>
      <trkpt lat="47.70006" lon="-2.3376">
        <ele>54.45</ele>
        <time>2014-08-04T13:42:46Z</time>
      </trkpt>
      <trkpt lat="47.69995" lon="-2.3375">
        <ele>54.93</ele>
        <time>2014-08-04T13:43:08Z</time>
      </trkpt>
      <trkpt lat="47.69996" lon="-2.33752">
        <ele>54.45</ele>
        <time>2014-08-04T13:43:29Z</time>
      </trkpt>
      <trkpt lat="47.69974" lon="-2.33758">
        <ele>54.45</ele>
        <time>2014-08-04T13:43:49Z</time>
      </trkpt>
      <trkpt lat="47.69973" lon="-2.33759">
        <ele>54.45</ele>
        <time>2014-08-04T13:43:50Z</time>
      </trkpt>
      <trkpt lat="47.69952" lon="-2.33775">
        <ele>52.53</ele>
        <time>2014-08-04T13:44:11Z</time>
      </trkpt>
      <trkpt lat="47.69949" lon="-2.3378">
        <ele>52.53</ele>
        <time>2014-08-04T13:44:14Z</time>
      </trkpt>
      <trkpt lat="47.69946" lon="-2.33792">
        <ele>52.53</ele>
        <time>2014-08-04T13:44:26Z</time>
      </trkpt>
      <trkpt lat="47.69947" lon="-2.33791">
        <ele>52.53</ele>
        <time>2014-08-04T13:44:28Z</time>
      </trkpt>
      <trkpt lat="47.69942" lon="-2.3381">
        <ele>51.57</ele>
        <time>2014-08-04T13:44:44Z</time>
      </trkpt>
      <trkpt lat="47.69935" lon="-2.33825">
        <ele>51.09</ele>
        <time>2014-08-04T13:44:55Z</time>
      </trkpt>
      <trkpt lat="47.69916" lon="-2.33813">
        <ele>48.2</ele>
        <time>2014-08-04T13:45:12Z</time>
      </trkpt>
      <trkpt lat="47.69916" lon="-2.33809">
        <ele>48.2</ele>
        <time>2014-08-04T13:45:15Z</time>
      </trkpt>
      <trkpt lat="47.69919" lon="-2.33801">
        <ele>47.72</ele>
        <time>2014-08-04T13:45:20Z</time>
      </trkpt>
      <trkpt lat="47.69925" lon="-2.33769">
        <ele>47.72</ele>
        <time>2014-08-04T13:45:39Z</time>
      </trkpt>
      <trkpt lat="47.69928" lon="-2.33769">
        <ele>47.72</ele>
        <time>2014-08-04T13:45:55Z</time>
      </trkpt>
      <trkpt lat="47.69934" lon="-2.33753">
        <ele>48.2</ele>
        <time>2014-08-04T13:46:14Z</time>
      </trkpt>
      <trkpt lat="47.69943" lon="-2.33729">
        <ele>48.2</ele>
        <time>2014-08-04T13:46:33Z</time>
      </trkpt>
      <trkpt lat="47.69954" lon="-2.33696">
        <ele>48.68</ele>
        <time>2014-08-04T13:46:55Z</time>
      </trkpt>
      <trkpt lat="47.69955" lon="-2.33682">
        <ele>48.68</ele>
        <time>2014-08-04T13:47:03Z</time>
      </trkpt>
      <trkpt lat="47.69951" lon="-2.33646">
        <ele>48.2</ele>
        <time>2014-08-04T13:47:24Z</time>
      </trkpt>
      <trkpt lat="47.6995" lon="-2.33643">
        <ele>48.2</ele>
        <time>2014-08-04T13:47:26Z</time>
      </trkpt>
      <trkpt lat="47.69937" lon="-2.33619">
        <ele>47.24</ele>
        <time>2014-08-04T13:47:45Z</time>
      </trkpt>
      <trkpt lat="47.69935" lon="-2.33607">
        <ele>46.76</ele>
        <time>2014-08-04T13:47:53Z</time>
      </trkpt>
      <trkpt lat="47.69934" lon="-2.3358">
        <ele>46.28</ele>
        <time>2014-08-04T13:48:09Z</time>
      </trkpt>
      <trkpt lat="47.69923" lon="-2.33535">
        <ele>45.32</ele>
        <time>2014-08-04T13:48:30Z</time>
      </trkpt>
      <trkpt lat="47.69925" lon="-2.3351">
        <ele>45.32</ele>
        <time>2014-08-04T13:48:50Z</time>
      </trkpt>
      <trkpt lat="47.69926" lon="-2.33513">
        <ele>44.84</ele>
        <time>2014-08-04T13:49:07Z</time>
      </trkpt>
    </trkseg>
  </trk>
</gpx>